<?xml version="1.0" encoding="UTF-8" standalone="no" ?>
<gpx xmlns="http://www.topografix.com/GPX/1/1" xmlns:xsi="http://www.w3.org/2001/XMLSchema-instance" xsi:schemaLocation="http://www.topografix.com/GPX/1/1 http://www.topografix.com/GPX/1/1/gpx.xsd" version="1.1" creator="VisuGPX - https://www.visugpx.com">
  <metadata>
    <name>Randonnée du 15-10-2016 Pouze</name>
    <desc><![CDATA[Randonnée du 15-10-2016-Boucle Pouze (31)]]></desc>
  </metadata>
  <trk>
    <name><![CDATA[Pouze Randonnée]]></name>
    <desc><![CDATA[15 oct. 2016  9:28 am]]></desc>
    <trkseg>
      <trkpt lat="43.43408" lon="1.52637">
        <ele>267.747</ele>
        <time>2016-10-15T07:28:02.991Z</time>
      </trkpt>
      <trkpt lat="43.43408" lon="1.52637">
        <ele>267.662</ele>
        <time>2016-10-15T07:28:03.091Z</time>
      </trkpt>
      <trkpt lat="43.43406" lon="1.52632">
        <ele>267.456</ele>
        <time>2016-10-15T07:28:29.999Z</time>
      </trkpt>
      <trkpt lat="43.43406" lon="1.52632">
        <ele>267.381</ele>
        <time>2016-10-15T07:28:37.999Z</time>
      </trkpt>
      <trkpt lat="43.43406" lon="1.52632">
        <ele>267.265</ele>
        <time>2016-10-15T07:29:43.687Z</time>
      </trkpt>
      <trkpt lat="43.434" lon="1.5264">
        <ele>267.069</ele>
        <time>2016-10-15T07:30:00.999Z</time>
      </trkpt>
      <trkpt lat="43.434" lon="1.5264">
        <ele>267.008</ele>
        <time>2016-10-15T07:30:00.999Z</time>
      </trkpt>
      <trkpt lat="43.434" lon="1.5264">
        <ele>266.894</ele>
        <time>2016-10-15T07:30:07.660Z</time>
      </trkpt>
      <trkpt lat="43.43395" lon="1.52652">
        <ele>266.695</ele>
        <time>2016-10-15T07:30:26.476Z</time>
      </trkpt>
      <trkpt lat="43.43386" lon="1.52654">
        <ele>264.891</ele>
        <time>2016-10-15T07:30:35.833Z</time>
      </trkpt>
      <trkpt lat="43.43381" lon="1.52643">
        <ele>260.174</ele>
        <time>2016-10-15T07:30:44.570Z</time>
      </trkpt>
      <trkpt lat="43.43386" lon="1.5263">
        <ele>255.166</ele>
        <time>2016-10-15T07:30:52.650Z</time>
      </trkpt>
      <trkpt lat="43.43389" lon="1.52617">
        <ele>252.407</ele>
        <time>2016-10-15T07:31:00.129Z</time>
      </trkpt>
      <trkpt lat="43.43392" lon="1.52605">
        <ele>251.368</ele>
        <time>2016-10-15T07:31:07.282Z</time>
      </trkpt>
      <trkpt lat="43.43396" lon="1.52592">
        <ele>251.078</ele>
        <time>2016-10-15T07:31:15.417Z</time>
      </trkpt>
      <trkpt lat="43.43399" lon="1.52579">
        <ele>250.974</ele>
        <time>2016-10-15T07:31:23.987Z</time>
      </trkpt>
      <trkpt lat="43.43404" lon="1.52569">
        <ele>250.833</ele>
        <time>2016-10-15T07:31:31.993Z</time>
      </trkpt>
      <trkpt lat="43.43409" lon="1.52557">
        <ele>250.661</ele>
        <time>2016-10-15T07:31:40.482Z</time>
      </trkpt>
      <trkpt lat="43.43415" lon="1.52546">
        <ele>250.526</ele>
        <time>2016-10-15T07:31:48.450Z</time>
      </trkpt>
      <trkpt lat="43.43416" lon="1.52534">
        <ele>250.465</ele>
        <time>2016-10-15T07:31:55.699Z</time>
      </trkpt>
      <trkpt lat="43.43419" lon="1.52522">
        <ele>250.366</ele>
        <time>2016-10-15T07:32:03.083Z</time>
      </trkpt>
      <trkpt lat="43.43422" lon="1.5251">
        <ele>250.14</ele>
        <time>2016-10-15T07:32:10.245Z</time>
      </trkpt>
      <trkpt lat="43.43424" lon="1.52496">
        <ele>250.169</ele>
        <time>2016-10-15T07:32:16.856Z</time>
      </trkpt>
      <trkpt lat="43.43426" lon="1.52484">
        <ele>250.757</ele>
        <time>2016-10-15T07:32:23.778Z</time>
      </trkpt>
      <trkpt lat="43.43429" lon="1.52471">
        <ele>251.483</ele>
        <time>2016-10-15T07:32:31.170Z</time>
      </trkpt>
      <trkpt lat="43.43431" lon="1.52459">
        <ele>251.892</ele>
        <time>2016-10-15T07:32:38.347Z</time>
      </trkpt>
      <trkpt lat="43.43433" lon="1.52446">
        <ele>251.992</ele>
        <time>2016-10-15T07:32:45.446Z</time>
      </trkpt>
      <trkpt lat="43.43435" lon="1.52434">
        <ele>251.918</ele>
        <time>2016-10-15T07:32:52.520Z</time>
      </trkpt>
      <trkpt lat="43.43438" lon="1.52421">
        <ele>251.75</ele>
        <time>2016-10-15T07:33:00.250Z</time>
      </trkpt>
      <trkpt lat="43.4344" lon="1.52408">
        <ele>251.533</ele>
        <time>2016-10-15T07:33:08.284Z</time>
      </trkpt>
      <trkpt lat="43.43441" lon="1.52394">
        <ele>251.236</ele>
        <time>2016-10-15T07:33:16.154Z</time>
      </trkpt>
      <trkpt lat="43.43443" lon="1.52381">
        <ele>250.882</ele>
        <time>2016-10-15T07:33:24.117Z</time>
      </trkpt>
      <trkpt lat="43.43447" lon="1.52368">
        <ele>250.608</ele>
        <time>2016-10-15T07:33:32.068Z</time>
      </trkpt>
      <trkpt lat="43.43449" lon="1.52355">
        <ele>250.408</ele>
        <time>2016-10-15T07:33:39.543Z</time>
      </trkpt>
      <trkpt lat="43.43452" lon="1.52343">
        <ele>250.08</ele>
        <time>2016-10-15T07:33:46.882Z</time>
      </trkpt>
      <trkpt lat="43.43455" lon="1.52331">
        <ele>249.601</ele>
        <time>2016-10-15T07:33:54.019Z</time>
      </trkpt>
      <trkpt lat="43.43456" lon="1.52318">
        <ele>249.088</ele>
        <time>2016-10-15T07:34:01.083Z</time>
      </trkpt>
      <trkpt lat="43.43457" lon="1.52305">
        <ele>248.591</ele>
        <time>2016-10-15T07:34:08.394Z</time>
      </trkpt>
      <trkpt lat="43.4346" lon="1.52292">
        <ele>248.097</ele>
        <time>2016-10-15T07:34:16.668Z</time>
      </trkpt>
      <trkpt lat="43.43464" lon="1.52279">
        <ele>247.612</ele>
        <time>2016-10-15T07:34:24.778Z</time>
      </trkpt>
      <trkpt lat="43.43466" lon="1.52265">
        <ele>247.181</ele>
        <time>2016-10-15T07:34:32.873Z</time>
      </trkpt>
      <trkpt lat="43.43468" lon="1.52253">
        <ele>246.894</ele>
        <time>2016-10-15T07:34:39.762Z</time>
      </trkpt>
      <trkpt lat="43.4347" lon="1.5224">
        <ele>246.745</ele>
        <time>2016-10-15T07:34:46.709Z</time>
      </trkpt>
      <trkpt lat="43.43472" lon="1.52229">
        <ele>246.606</ele>
        <time>2016-10-15T07:34:53.099Z</time>
      </trkpt>
      <trkpt lat="43.43474" lon="1.52216">
        <ele>246.317</ele>
        <time>2016-10-15T07:34:59.729Z</time>
      </trkpt>
      <trkpt lat="43.43477" lon="1.52204">
        <ele>245.817</ele>
        <time>2016-10-15T07:35:07.179Z</time>
      </trkpt>
      <trkpt lat="43.43481" lon="1.52192">
        <ele>245.246</ele>
        <time>2016-10-15T07:35:15.839Z</time>
      </trkpt>
      <trkpt lat="43.43484" lon="1.5218">
        <ele>244.743</ele>
        <time>2016-10-15T07:35:24.054Z</time>
      </trkpt>
      <trkpt lat="43.43486" lon="1.52167">
        <ele>244.302</ele>
        <time>2016-10-15T07:35:31.459Z</time>
      </trkpt>
      <trkpt lat="43.43488" lon="1.52154">
        <ele>243.918</ele>
        <time>2016-10-15T07:35:38.475Z</time>
      </trkpt>
      <trkpt lat="43.43489" lon="1.5214">
        <ele>243.535</ele>
        <time>2016-10-15T07:35:45.458Z</time>
      </trkpt>
      <trkpt lat="43.4349" lon="1.52127">
        <ele>243.022</ele>
        <time>2016-10-15T07:35:52.127Z</time>
      </trkpt>
      <trkpt lat="43.43491" lon="1.52113">
        <ele>242.434</ele>
        <time>2016-10-15T07:35:58.756Z</time>
      </trkpt>
      <trkpt lat="43.43491" lon="1.521">
        <ele>241.971</ele>
        <time>2016-10-15T07:36:05.429Z</time>
      </trkpt>
      <trkpt lat="43.43493" lon="1.52088">
        <ele>241.73</ele>
        <time>2016-10-15T07:36:12.172Z</time>
      </trkpt>
      <trkpt lat="43.43494" lon="1.52074">
        <ele>241.717</ele>
        <time>2016-10-15T07:36:19.306Z</time>
      </trkpt>
      <trkpt lat="43.43495" lon="1.52061">
        <ele>241.881</ele>
        <time>2016-10-15T07:36:26.308Z</time>
      </trkpt>
      <trkpt lat="43.43496" lon="1.52048">
        <ele>242.049</ele>
        <time>2016-10-15T07:36:32.685Z</time>
      </trkpt>
      <trkpt lat="43.43498" lon="1.52035">
        <ele>242.054</ele>
        <time>2016-10-15T07:36:40.184Z</time>
      </trkpt>
      <trkpt lat="43.435" lon="1.52022">
        <ele>241.909</ele>
        <time>2016-10-15T07:36:47.727Z</time>
      </trkpt>
      <trkpt lat="43.43503" lon="1.5201">
        <ele>241.737</ele>
        <time>2016-10-15T07:36:55.034Z</time>
      </trkpt>
      <trkpt lat="43.43502" lon="1.51997">
        <ele>241.632</ele>
        <time>2016-10-15T07:37:02.582Z</time>
      </trkpt>
      <trkpt lat="43.43505" lon="1.51984">
        <ele>241.554</ele>
        <time>2016-10-15T07:37:10.714Z</time>
      </trkpt>
      <trkpt lat="43.43506" lon="1.51972">
        <ele>241.406</ele>
        <time>2016-10-15T07:37:17.997Z</time>
      </trkpt>
      <trkpt lat="43.43507" lon="1.51958">
        <ele>241.17</ele>
        <time>2016-10-15T07:37:25.321Z</time>
      </trkpt>
      <trkpt lat="43.43511" lon="1.51945">
        <ele>240.883</ele>
        <time>2016-10-15T07:37:32.385Z</time>
      </trkpt>
      <trkpt lat="43.43512" lon="1.51932">
        <ele>240.531</ele>
        <time>2016-10-15T07:37:39.222Z</time>
      </trkpt>
      <trkpt lat="43.43513" lon="1.51919">
        <ele>240.098</ele>
        <time>2016-10-15T07:37:46.382Z</time>
      </trkpt>
      <trkpt lat="43.43513" lon="1.51907">
        <ele>239.65</ele>
        <time>2016-10-15T07:37:54.623Z</time>
      </trkpt>
      <trkpt lat="43.43509" lon="1.51896">
        <ele>239.26</ele>
        <time>2016-10-15T07:38:04.707Z</time>
      </trkpt>
      <trkpt lat="43.435" lon="1.5189">
        <ele>238.887</ele>
        <time>2016-10-15T07:38:16.705Z</time>
      </trkpt>
      <trkpt lat="43.43491" lon="1.51886">
        <ele>238.397</ele>
        <time>2016-10-15T07:38:25.984Z</time>
      </trkpt>
      <trkpt lat="43.43482" lon="1.51885">
        <ele>237.613</ele>
        <time>2016-10-15T07:38:34.150Z</time>
      </trkpt>
      <trkpt lat="43.43472" lon="1.51884">
        <ele>236.597</ele>
        <time>2016-10-15T07:38:42.117Z</time>
      </trkpt>
      <trkpt lat="43.43462" lon="1.51882">
        <ele>235.748</ele>
        <time>2016-10-15T07:38:49.811Z</time>
      </trkpt>
      <trkpt lat="43.43452" lon="1.51881">
        <ele>235.325</ele>
        <time>2016-10-15T07:38:56.715Z</time>
      </trkpt>
      <trkpt lat="43.43443" lon="1.51882">
        <ele>235.191</ele>
        <time>2016-10-15T07:39:03.768Z</time>
      </trkpt>
      <trkpt lat="43.43434" lon="1.51882">
        <ele>234.983</ele>
        <time>2016-10-15T07:39:11.198Z</time>
      </trkpt>
      <trkpt lat="43.43424" lon="1.51885">
        <ele>234.389</ele>
        <time>2016-10-15T07:39:18.782Z</time>
      </trkpt>
      <trkpt lat="43.43416" lon="1.51888">
        <ele>233.569</ele>
        <time>2016-10-15T07:39:25.989Z</time>
      </trkpt>
      <trkpt lat="43.43406" lon="1.51891">
        <ele>232.911</ele>
        <time>2016-10-15T07:39:33.531Z</time>
      </trkpt>
      <trkpt lat="43.43396" lon="1.51893">
        <ele>232.414</ele>
        <time>2016-10-15T07:39:41.333Z</time>
      </trkpt>
      <trkpt lat="43.43386" lon="1.51895">
        <ele>231.897</ele>
        <time>2016-10-15T07:39:48.764Z</time>
      </trkpt>
      <trkpt lat="43.43376" lon="1.51897">
        <ele>231.444</ele>
        <time>2016-10-15T07:39:55.823Z</time>
      </trkpt>
      <trkpt lat="43.43366" lon="1.519">
        <ele>231.26</ele>
        <time>2016-10-15T07:40:03.233Z</time>
      </trkpt>
      <trkpt lat="43.43357" lon="1.51904">
        <ele>231.352</ele>
        <time>2016-10-15T07:40:10.055Z</time>
      </trkpt>
      <trkpt lat="43.43347" lon="1.51904">
        <ele>231.466</ele>
        <time>2016-10-15T07:40:16.719Z</time>
      </trkpt>
      <trkpt lat="43.43338" lon="1.51905">
        <ele>231.413</ele>
        <time>2016-10-15T07:40:24.226Z</time>
      </trkpt>
      <trkpt lat="43.43327" lon="1.51904">
        <ele>231.28</ele>
        <time>2016-10-15T07:40:32.129Z</time>
      </trkpt>
      <trkpt lat="43.43318" lon="1.519">
        <ele>231.179</ele>
        <time>2016-10-15T07:40:39.046Z</time>
      </trkpt>
      <trkpt lat="43.43309" lon="1.51895">
        <ele>231.088</ele>
        <time>2016-10-15T07:40:46.324Z</time>
      </trkpt>
      <trkpt lat="43.433" lon="1.5189">
        <ele>230.972</ele>
        <time>2016-10-15T07:40:53.611Z</time>
      </trkpt>
      <trkpt lat="43.4329" lon="1.51884">
        <ele>230.813</ele>
        <time>2016-10-15T07:41:01.289Z</time>
      </trkpt>
      <trkpt lat="43.43282" lon="1.51877">
        <ele>230.636</ele>
        <time>2016-10-15T07:41:09.054Z</time>
      </trkpt>
      <trkpt lat="43.43273" lon="1.51872">
        <ele>230.537</ele>
        <time>2016-10-15T07:41:16.190Z</time>
      </trkpt>
      <trkpt lat="43.43265" lon="1.51867">
        <ele>230.599</ele>
        <time>2016-10-15T07:41:23.155Z</time>
      </trkpt>
      <trkpt lat="43.43257" lon="1.51861">
        <ele>230.854</ele>
        <time>2016-10-15T07:41:30.708Z</time>
      </trkpt>
      <trkpt lat="43.43248" lon="1.51855">
        <ele>231.304</ele>
        <time>2016-10-15T07:41:38.656Z</time>
      </trkpt>
      <trkpt lat="43.4324" lon="1.51845">
        <ele>231.859</ele>
        <time>2016-10-15T07:41:46.341Z</time>
      </trkpt>
      <trkpt lat="43.43233" lon="1.51837">
        <ele>232.412</ele>
        <time>2016-10-15T07:41:53.250Z</time>
      </trkpt>
      <trkpt lat="43.43226" lon="1.51828">
        <ele>232.984</ele>
        <time>2016-10-15T07:42:00.735Z</time>
      </trkpt>
      <trkpt lat="43.43218" lon="1.5182">
        <ele>233.653</ele>
        <time>2016-10-15T07:42:09.214Z</time>
      </trkpt>
      <trkpt lat="43.4321" lon="1.51813">
        <ele>234.312</ele>
        <time>2016-10-15T07:42:18.687Z</time>
      </trkpt>
      <trkpt lat="43.43202" lon="1.51804">
        <ele>234.72</ele>
        <time>2016-10-15T07:42:27.101Z</time>
      </trkpt>
      <trkpt lat="43.43193" lon="1.51796">
        <ele>234.777</ele>
        <time>2016-10-15T07:42:34.564Z</time>
      </trkpt>
      <trkpt lat="43.43185" lon="1.51788">
        <ele>234.561</ele>
        <time>2016-10-15T07:42:42.379Z</time>
      </trkpt>
      <trkpt lat="43.43177" lon="1.51782">
        <ele>234.142</ele>
        <time>2016-10-15T07:42:50.881Z</time>
      </trkpt>
      <trkpt lat="43.43168" lon="1.51774">
        <ele>233.316</ele>
        <time>2016-10-15T07:43:00.200Z</time>
      </trkpt>
      <trkpt lat="43.43161" lon="1.51765">
        <ele>232.073</ele>
        <time>2016-10-15T07:43:07.626Z</time>
      </trkpt>
      <trkpt lat="43.43153" lon="1.51758">
        <ele>230.867</ele>
        <time>2016-10-15T07:43:13.939Z</time>
      </trkpt>
      <trkpt lat="43.43145" lon="1.51751">
        <ele>229.954</ele>
        <time>2016-10-15T07:43:20.762Z</time>
      </trkpt>
      <trkpt lat="43.43138" lon="1.51743">
        <ele>229.207</ele>
        <time>2016-10-15T07:43:28.156Z</time>
      </trkpt>
      <trkpt lat="43.43129" lon="1.51736">
        <ele>228.63</ele>
        <time>2016-10-15T07:43:35.627Z</time>
      </trkpt>
      <trkpt lat="43.43121" lon="1.51727">
        <ele>228.244</ele>
        <time>2016-10-15T07:43:42.644Z</time>
      </trkpt>
      <trkpt lat="43.43113" lon="1.5172">
        <ele>227.968</ele>
        <time>2016-10-15T07:43:49.372Z</time>
      </trkpt>
      <trkpt lat="43.43105" lon="1.51713">
        <ele>227.756</ele>
        <time>2016-10-15T07:43:56.443Z</time>
      </trkpt>
      <trkpt lat="43.43097" lon="1.51709">
        <ele>227.634</ele>
        <time>2016-10-15T07:44:03.234Z</time>
      </trkpt>
      <trkpt lat="43.43088" lon="1.51705">
        <ele>227.534</ele>
        <time>2016-10-15T07:44:10.624Z</time>
      </trkpt>
      <trkpt lat="43.43079" lon="1.517">
        <ele>227.355</ele>
        <time>2016-10-15T07:44:18.853Z</time>
      </trkpt>
      <trkpt lat="43.4307" lon="1.51694">
        <ele>226.994</ele>
        <time>2016-10-15T07:44:26.944Z</time>
      </trkpt>
      <trkpt lat="43.43061" lon="1.5169">
        <ele>226.467</ele>
        <time>2016-10-15T07:44:34.469Z</time>
      </trkpt>
      <trkpt lat="43.43054" lon="1.51681">
        <ele>225.983</ele>
        <time>2016-10-15T07:44:41.692Z</time>
      </trkpt>
      <trkpt lat="43.43046" lon="1.51673">
        <ele>225.694</ele>
        <time>2016-10-15T07:44:48.608Z</time>
      </trkpt>
      <trkpt lat="43.43039" lon="1.51663">
        <ele>225.558</ele>
        <time>2016-10-15T07:44:55.896Z</time>
      </trkpt>
      <trkpt lat="43.43034" lon="1.51652">
        <ele>225.517</ele>
        <time>2016-10-15T07:45:03.050Z</time>
      </trkpt>
      <trkpt lat="43.43028" lon="1.51641">
        <ele>225.654</ele>
        <time>2016-10-15T07:45:10.877Z</time>
      </trkpt>
      <trkpt lat="43.43024" lon="1.51629">
        <ele>226.067</ele>
        <time>2016-10-15T07:45:19.232Z</time>
      </trkpt>
      <trkpt lat="43.43019" lon="1.51617">
        <ele>226.761</ele>
        <time>2016-10-15T07:45:27.288Z</time>
      </trkpt>
      <trkpt lat="43.43014" lon="1.51606">
        <ele>227.59</ele>
        <time>2016-10-15T07:45:33.992Z</time>
      </trkpt>
      <trkpt lat="43.43008" lon="1.51596">
        <ele>228.325</ele>
        <time>2016-10-15T07:45:40.919Z</time>
      </trkpt>
      <trkpt lat="43.43003" lon="1.51586">
        <ele>228.889</ele>
        <time>2016-10-15T07:45:47.975Z</time>
      </trkpt>
      <trkpt lat="43.42996" lon="1.51575">
        <ele>229.385</ele>
        <time>2016-10-15T07:45:55.797Z</time>
      </trkpt>
      <trkpt lat="43.4299" lon="1.51565">
        <ele>229.828</ele>
        <time>2016-10-15T07:46:02.972Z</time>
      </trkpt>
      <trkpt lat="43.42983" lon="1.51557">
        <ele>230.24</ele>
        <time>2016-10-15T07:46:11.286Z</time>
      </trkpt>
      <trkpt lat="43.42976" lon="1.51547">
        <ele>230.726</ele>
        <time>2016-10-15T07:46:20.417Z</time>
      </trkpt>
      <trkpt lat="43.42968" lon="1.51541">
        <ele>231.303</ele>
        <time>2016-10-15T07:46:27.695Z</time>
      </trkpt>
      <trkpt lat="43.4296" lon="1.51534">
        <ele>231.869</ele>
        <time>2016-10-15T07:46:35.533Z</time>
      </trkpt>
      <trkpt lat="43.42957" lon="1.5152">
        <ele>232.421</ele>
        <time>2016-10-15T07:46:44.450Z</time>
      </trkpt>
      <trkpt lat="43.42949" lon="1.51511">
        <ele>232.942</ele>
        <time>2016-10-15T07:46:53.642Z</time>
      </trkpt>
      <trkpt lat="43.42941" lon="1.51506">
        <ele>233.263</ele>
        <time>2016-10-15T07:47:01.917Z</time>
      </trkpt>
      <trkpt lat="43.42932" lon="1.515">
        <ele>233.327</ele>
        <time>2016-10-15T07:47:10.593Z</time>
      </trkpt>
      <trkpt lat="43.42923" lon="1.51493">
        <ele>233.284</ele>
        <time>2016-10-15T07:47:18.928Z</time>
      </trkpt>
      <trkpt lat="43.42915" lon="1.51485">
        <ele>233.291</ele>
        <time>2016-10-15T07:47:27.527Z</time>
      </trkpt>
      <trkpt lat="43.42907" lon="1.51477">
        <ele>233.368</ele>
        <time>2016-10-15T07:47:35.678Z</time>
      </trkpt>
      <trkpt lat="43.42898" lon="1.5147">
        <ele>233.465</ele>
        <time>2016-10-15T07:47:43.287Z</time>
      </trkpt>
      <trkpt lat="43.4289" lon="1.51461">
        <ele>233.591</ele>
        <time>2016-10-15T07:47:51.233Z</time>
      </trkpt>
      <trkpt lat="43.42882" lon="1.51454">
        <ele>233.755</ele>
        <time>2016-10-15T07:47:59.182Z</time>
      </trkpt>
      <trkpt lat="43.42874" lon="1.51445">
        <ele>233.836</ele>
        <time>2016-10-15T07:48:08.095Z</time>
      </trkpt>
      <trkpt lat="43.42867" lon="1.51437">
        <ele>233.704</ele>
        <time>2016-10-15T07:48:16.906Z</time>
      </trkpt>
      <trkpt lat="43.42858" lon="1.51429">
        <ele>233.422</ele>
        <time>2016-10-15T07:48:25.198Z</time>
      </trkpt>
      <trkpt lat="43.4285" lon="1.51422">
        <ele>233.087</ele>
        <time>2016-10-15T07:48:32.340Z</time>
      </trkpt>
      <trkpt lat="43.42842" lon="1.51415">
        <ele>232.592</ele>
        <time>2016-10-15T07:48:39.587Z</time>
      </trkpt>
      <trkpt lat="43.42834" lon="1.51407">
        <ele>231.794</ele>
        <time>2016-10-15T07:48:48.093Z</time>
      </trkpt>
      <trkpt lat="43.42826" lon="1.51399">
        <ele>230.873</ele>
        <time>2016-10-15T07:48:54.849Z</time>
      </trkpt>
      <trkpt lat="43.42818" lon="1.51391">
        <ele>230.148</ele>
        <time>2016-10-15T07:49:02.169Z</time>
      </trkpt>
      <trkpt lat="43.4281" lon="1.51384">
        <ele>229.641</ele>
        <time>2016-10-15T07:49:09.578Z</time>
      </trkpt>
      <trkpt lat="43.42802" lon="1.51376">
        <ele>229.156</ele>
        <time>2016-10-15T07:49:17.775Z</time>
      </trkpt>
      <trkpt lat="43.42795" lon="1.51369">
        <ele>228.607</ele>
        <time>2016-10-15T07:49:25.123Z</time>
      </trkpt>
      <trkpt lat="43.42787" lon="1.51361">
        <ele>228.029</ele>
        <time>2016-10-15T07:49:32.281Z</time>
      </trkpt>
      <trkpt lat="43.4278" lon="1.51353">
        <ele>227.548</ele>
        <time>2016-10-15T07:49:39.143Z</time>
      </trkpt>
      <trkpt lat="43.42772" lon="1.51344">
        <ele>227.321</ele>
        <time>2016-10-15T07:49:46.579Z</time>
      </trkpt>
      <trkpt lat="43.42764" lon="1.51337">
        <ele>227.355</ele>
        <time>2016-10-15T07:49:53.472Z</time>
      </trkpt>
      <trkpt lat="43.42756" lon="1.51329">
        <ele>227.651</ele>
        <time>2016-10-15T07:50:00.431Z</time>
      </trkpt>
      <trkpt lat="43.42748" lon="1.51322">
        <ele>228.159</ele>
        <time>2016-10-15T07:50:07.941Z</time>
      </trkpt>
      <trkpt lat="43.4274" lon="1.51315">
        <ele>228.57</ele>
        <time>2016-10-15T07:50:15.316Z</time>
      </trkpt>
      <trkpt lat="43.42732" lon="1.51308">
        <ele>228.639</ele>
        <time>2016-10-15T07:50:23.444Z</time>
      </trkpt>
      <trkpt lat="43.42724" lon="1.513">
        <ele>228.339</ele>
        <time>2016-10-15T07:50:31.385Z</time>
      </trkpt>
      <trkpt lat="43.42716" lon="1.51292">
        <ele>227.783</ele>
        <time>2016-10-15T07:50:39.808Z</time>
      </trkpt>
      <trkpt lat="43.42708" lon="1.51284">
        <ele>227.321</ele>
        <time>2016-10-15T07:50:46.400Z</time>
      </trkpt>
      <trkpt lat="43.42701" lon="1.51276">
        <ele>227.191</ele>
        <time>2016-10-15T07:50:52.228Z</time>
      </trkpt>
      <trkpt lat="43.42693" lon="1.51268">
        <ele>227.352</ele>
        <time>2016-10-15T07:50:58.348Z</time>
      </trkpt>
      <trkpt lat="43.42686" lon="1.51261">
        <ele>227.683</ele>
        <time>2016-10-15T07:51:05.346Z</time>
      </trkpt>
      <trkpt lat="43.42677" lon="1.51256">
        <ele>228.061</ele>
        <time>2016-10-15T07:51:12.884Z</time>
      </trkpt>
      <trkpt lat="43.42669" lon="1.51248">
        <ele>228.422</ele>
        <time>2016-10-15T07:51:21.595Z</time>
      </trkpt>
      <trkpt lat="43.42661" lon="1.5124">
        <ele>228.755</ele>
        <time>2016-10-15T07:51:29.624Z</time>
      </trkpt>
      <trkpt lat="43.42652" lon="1.51233">
        <ele>229.115</ele>
        <time>2016-10-15T07:51:37.073Z</time>
      </trkpt>
      <trkpt lat="43.42644" lon="1.51225">
        <ele>229.675</ele>
        <time>2016-10-15T07:51:43.405Z</time>
      </trkpt>
      <trkpt lat="43.42636" lon="1.51219">
        <ele>230.509</ele>
        <time>2016-10-15T07:51:49.215Z</time>
      </trkpt>
      <trkpt lat="43.42628" lon="1.51213">
        <ele>231.399</ele>
        <time>2016-10-15T07:51:55.677Z</time>
      </trkpt>
      <trkpt lat="43.4262" lon="1.51208">
        <ele>232.072</ele>
        <time>2016-10-15T07:52:02.243Z</time>
      </trkpt>
      <trkpt lat="43.42611" lon="1.51202">
        <ele>232.469</ele>
        <time>2016-10-15T07:52:09.416Z</time>
      </trkpt>
      <trkpt lat="43.42602" lon="1.51195">
        <ele>232.64</ele>
        <time>2016-10-15T07:52:17.000Z</time>
      </trkpt>
      <trkpt lat="43.42602" lon="1.51195">
        <ele>232.659</ele>
        <time>2016-10-15T07:52:23.000Z</time>
      </trkpt>
      <trkpt lat="43.42602" lon="1.51195">
        <ele>232.599</ele>
        <time>2016-10-15T07:55:50.901Z</time>
      </trkpt>
      <trkpt lat="43.42588" lon="1.51192">
        <ele>232.498</ele>
        <time>2016-10-15T07:56:14.870Z</time>
      </trkpt>
      <trkpt lat="43.4258" lon="1.51186">
        <ele>232.672</ele>
        <time>2016-10-15T07:56:24.553Z</time>
      </trkpt>
      <trkpt lat="43.42571" lon="1.5118">
        <ele>233.311</ele>
        <time>2016-10-15T07:56:32.875Z</time>
      </trkpt>
      <trkpt lat="43.42562" lon="1.51176">
        <ele>233.913</ele>
        <time>2016-10-15T07:56:42.059Z</time>
      </trkpt>
      <trkpt lat="43.42553" lon="1.51172">
        <ele>233.901</ele>
        <time>2016-10-15T07:56:50.423Z</time>
      </trkpt>
      <trkpt lat="43.42545" lon="1.51168">
        <ele>233.325</ele>
        <time>2016-10-15T07:56:58.538Z</time>
      </trkpt>
      <trkpt lat="43.42535" lon="1.51164">
        <ele>232.502</ele>
        <time>2016-10-15T07:57:07.634Z</time>
      </trkpt>
      <trkpt lat="43.42528" lon="1.51156">
        <ele>231.613</ele>
        <time>2016-10-15T07:57:16.594Z</time>
      </trkpt>
      <trkpt lat="43.42518" lon="1.51151">
        <ele>230.684</ele>
        <time>2016-10-15T07:57:25.699Z</time>
      </trkpt>
      <trkpt lat="43.42509" lon="1.51146">
        <ele>229.717</ele>
        <time>2016-10-15T07:57:33.875Z</time>
      </trkpt>
      <trkpt lat="43.42501" lon="1.5114">
        <ele>228.715</ele>
        <time>2016-10-15T07:57:40.774Z</time>
      </trkpt>
      <trkpt lat="43.42493" lon="1.51135">
        <ele>227.696</ele>
        <time>2016-10-15T07:57:47.137Z</time>
      </trkpt>
      <trkpt lat="43.42485" lon="1.51126">
        <ele>226.707</ele>
        <time>2016-10-15T07:57:53.743Z</time>
      </trkpt>
      <trkpt lat="43.42478" lon="1.51117">
        <ele>225.788</ele>
        <time>2016-10-15T07:58:00.335Z</time>
      </trkpt>
      <trkpt lat="43.42469" lon="1.51112">
        <ele>224.962</ele>
        <time>2016-10-15T07:58:08.015Z</time>
      </trkpt>
      <trkpt lat="43.4246" lon="1.51104">
        <ele>224.231</ele>
        <time>2016-10-15T07:58:16.055Z</time>
      </trkpt>
      <trkpt lat="43.42452" lon="1.51098">
        <ele>223.535</ele>
        <time>2016-10-15T07:58:23.051Z</time>
      </trkpt>
      <trkpt lat="43.42443" lon="1.51093">
        <ele>222.858</ele>
        <time>2016-10-15T07:58:30.711Z</time>
      </trkpt>
      <trkpt lat="43.42434" lon="1.51086">
        <ele>222.252</ele>
        <time>2016-10-15T07:58:38.094Z</time>
      </trkpt>
      <trkpt lat="43.42426" lon="1.51079">
        <ele>221.764</ele>
        <time>2016-10-15T07:58:45.892Z</time>
      </trkpt>
      <trkpt lat="43.42417" lon="1.51073">
        <ele>221.422</ele>
        <time>2016-10-15T07:58:53.912Z</time>
      </trkpt>
      <trkpt lat="43.42408" lon="1.51069">
        <ele>221.169</ele>
        <time>2016-10-15T07:59:01.826Z</time>
      </trkpt>
      <trkpt lat="43.42399" lon="1.51063">
        <ele>220.841</ele>
        <time>2016-10-15T07:59:09.499Z</time>
      </trkpt>
      <trkpt lat="43.42391" lon="1.51056">
        <ele>220.424</ele>
        <time>2016-10-15T07:59:17.175Z</time>
      </trkpt>
      <trkpt lat="43.42383" lon="1.51048">
        <ele>220.037</ele>
        <time>2016-10-15T07:59:25.366Z</time>
      </trkpt>
      <trkpt lat="43.42374" lon="1.51044">
        <ele>219.712</ele>
        <time>2016-10-15T07:59:33.862Z</time>
      </trkpt>
      <trkpt lat="43.42365" lon="1.51039">
        <ele>219.435</ele>
        <time>2016-10-15T07:59:42.596Z</time>
      </trkpt>
      <trkpt lat="43.42355" lon="1.51034">
        <ele>219.233</ele>
        <time>2016-10-15T07:59:51.430Z</time>
      </trkpt>
      <trkpt lat="43.42345" lon="1.51034">
        <ele>219.107</ele>
        <time>2016-10-15T07:59:59.791Z</time>
      </trkpt>
      <trkpt lat="43.4234" lon="1.51045">
        <ele>218.981</ele>
        <time>2016-10-15T08:00:07.634Z</time>
      </trkpt>
      <trkpt lat="43.42335" lon="1.51056">
        <ele>218.8</ele>
        <time>2016-10-15T08:00:14.681Z</time>
      </trkpt>
      <trkpt lat="43.42329" lon="1.51068">
        <ele>218.599</ele>
        <time>2016-10-15T08:00:22.335Z</time>
      </trkpt>
      <trkpt lat="43.42325" lon="1.5108">
        <ele>218.4</ele>
        <time>2016-10-15T08:00:29.384Z</time>
      </trkpt>
      <trkpt lat="43.4232" lon="1.51092">
        <ele>218.184</ele>
        <time>2016-10-15T08:00:36.919Z</time>
      </trkpt>
      <trkpt lat="43.42315" lon="1.51103">
        <ele>217.976</ele>
        <time>2016-10-15T08:00:45.504Z</time>
      </trkpt>
      <trkpt lat="43.42311" lon="1.51115">
        <ele>218.214</ele>
        <time>2016-10-15T08:00:53.805Z</time>
      </trkpt>
      <trkpt lat="43.42307" lon="1.51127">
        <ele>219.147</ele>
        <time>2016-10-15T08:01:03.054Z</time>
      </trkpt>
      <trkpt lat="43.42302" lon="1.51138">
        <ele>220.063</ele>
        <time>2016-10-15T08:01:12.190Z</time>
      </trkpt>
      <trkpt lat="43.42298" lon="1.5115">
        <ele>220.209</ele>
        <time>2016-10-15T08:01:21.355Z</time>
      </trkpt>
      <trkpt lat="43.42294" lon="1.51162">
        <ele>219.631</ele>
        <time>2016-10-15T08:01:31.498Z</time>
      </trkpt>
      <trkpt lat="43.4229" lon="1.51174">
        <ele>218.465</ele>
        <time>2016-10-15T08:01:39.371Z</time>
      </trkpt>
      <trkpt lat="43.42286" lon="1.51186">
        <ele>216.844</ele>
        <time>2016-10-15T08:01:47.261Z</time>
      </trkpt>
      <trkpt lat="43.42281" lon="1.51197">
        <ele>215.246</ele>
        <time>2016-10-15T08:01:56.166Z</time>
      </trkpt>
      <trkpt lat="43.42275" lon="1.51206">
        <ele>214.018</ele>
        <time>2016-10-15T08:02:05.403Z</time>
      </trkpt>
      <trkpt lat="43.4227" lon="1.51216">
        <ele>212.996</ele>
        <time>2016-10-15T08:02:14.272Z</time>
      </trkpt>
      <trkpt lat="43.42265" lon="1.51227">
        <ele>212.029</ele>
        <time>2016-10-15T08:02:23.885Z</time>
      </trkpt>
      <trkpt lat="43.42258" lon="1.51238">
        <ele>211.072</ele>
        <time>2016-10-15T08:02:34.986Z</time>
      </trkpt>
      <trkpt lat="43.42252" lon="1.51247">
        <ele>209.998</ele>
        <time>2016-10-15T08:02:44.001Z</time>
      </trkpt>
      <trkpt lat="43.42248" lon="1.5126">
        <ele>208.683</ele>
        <time>2016-10-15T08:02:52.168Z</time>
      </trkpt>
      <trkpt lat="43.42244" lon="1.51272">
        <ele>207.166</ele>
        <time>2016-10-15T08:02:59.256Z</time>
      </trkpt>
      <trkpt lat="43.42241" lon="1.51283">
        <ele>205.616</ele>
        <time>2016-10-15T08:03:07.282Z</time>
      </trkpt>
      <trkpt lat="43.42235" lon="1.51293">
        <ele>204.186</ele>
        <time>2016-10-15T08:03:16.133Z</time>
      </trkpt>
      <trkpt lat="43.42229" lon="1.51303">
        <ele>202.906</ele>
        <time>2016-10-15T08:03:24.607Z</time>
      </trkpt>
      <trkpt lat="43.42226" lon="1.51315">
        <ele>201.695</ele>
        <time>2016-10-15T08:03:32.607Z</time>
      </trkpt>
      <trkpt lat="43.42221" lon="1.51328">
        <ele>200.504</ele>
        <time>2016-10-15T08:03:40.100Z</time>
      </trkpt>
      <trkpt lat="43.42217" lon="1.51339">
        <ele>199.427</ele>
        <time>2016-10-15T08:03:46.861Z</time>
      </trkpt>
      <trkpt lat="43.42212" lon="1.5135">
        <ele>198.528</ele>
        <time>2016-10-15T08:03:54.353Z</time>
      </trkpt>
      <trkpt lat="43.42206" lon="1.51361">
        <ele>197.716</ele>
        <time>2016-10-15T08:04:02.327Z</time>
      </trkpt>
      <trkpt lat="43.422" lon="1.51371">
        <ele>196.88</ele>
        <time>2016-10-15T08:04:09.884Z</time>
      </trkpt>
      <trkpt lat="43.42195" lon="1.51382">
        <ele>196.043</ele>
        <time>2016-10-15T08:04:17.923Z</time>
      </trkpt>
      <trkpt lat="43.4219" lon="1.51393">
        <ele>195.284</ele>
        <time>2016-10-15T08:04:26.317Z</time>
      </trkpt>
      <trkpt lat="43.42181" lon="1.51397">
        <ele>194.574</ele>
        <time>2016-10-15T08:04:35.075Z</time>
      </trkpt>
      <trkpt lat="43.4217" lon="1.51397">
        <ele>193.941</ele>
        <time>2016-10-15T08:04:43.300Z</time>
      </trkpt>
      <trkpt lat="43.42161" lon="1.51398">
        <ele>193.378</ele>
        <time>2016-10-15T08:04:50.903Z</time>
      </trkpt>
      <trkpt lat="43.42151" lon="1.51399">
        <ele>192.732</ele>
        <time>2016-10-15T08:04:58.002Z</time>
      </trkpt>
      <trkpt lat="43.42141" lon="1.51399">
        <ele>192.048</ele>
        <time>2016-10-15T08:05:06.013Z</time>
      </trkpt>
      <trkpt lat="43.42133" lon="1.51404">
        <ele>191.56</ele>
        <time>2016-10-15T08:05:14.199Z</time>
      </trkpt>
      <trkpt lat="43.42123" lon="1.51408">
        <ele>191.272</ele>
        <time>2016-10-15T08:05:23.793Z</time>
      </trkpt>
      <trkpt lat="43.42114" lon="1.51414">
        <ele>191.064</ele>
        <time>2016-10-15T08:05:31.815Z</time>
      </trkpt>
      <trkpt lat="43.42106" lon="1.51419">
        <ele>190.95</ele>
        <time>2016-10-15T08:05:38.356Z</time>
      </trkpt>
      <trkpt lat="43.42098" lon="1.51428">
        <ele>190.986</ele>
        <time>2016-10-15T08:05:45.538Z</time>
      </trkpt>
      <trkpt lat="43.4209" lon="1.51435">
        <ele>191.115</ele>
        <time>2016-10-15T08:05:53.133Z</time>
      </trkpt>
      <trkpt lat="43.42082" lon="1.51443">
        <ele>191.291</ele>
        <time>2016-10-15T08:06:01.219Z</time>
      </trkpt>
      <trkpt lat="43.42075" lon="1.51452">
        <ele>191.503</ele>
        <time>2016-10-15T08:06:10.644Z</time>
      </trkpt>
      <trkpt lat="43.42068" lon="1.51461">
        <ele>191.751</ele>
        <time>2016-10-15T08:06:18.446Z</time>
      </trkpt>
      <trkpt lat="43.42061" lon="1.51471">
        <ele>192.085</ele>
        <time>2016-10-15T08:06:26.323Z</time>
      </trkpt>
      <trkpt lat="43.42053" lon="1.51479">
        <ele>192.531</ele>
        <time>2016-10-15T08:06:34.728Z</time>
      </trkpt>
      <trkpt lat="43.42046" lon="1.51488">
        <ele>193.003</ele>
        <time>2016-10-15T08:06:43.622Z</time>
      </trkpt>
      <trkpt lat="43.42039" lon="1.51498">
        <ele>193.448</ele>
        <time>2016-10-15T08:06:51.785Z</time>
      </trkpt>
      <trkpt lat="43.42033" lon="1.51508">
        <ele>193.89</ele>
        <time>2016-10-15T08:06:59.596Z</time>
      </trkpt>
      <trkpt lat="43.42026" lon="1.51517">
        <ele>194.365</ele>
        <time>2016-10-15T08:07:06.883Z</time>
      </trkpt>
      <trkpt lat="43.42019" lon="1.51525">
        <ele>194.871</ele>
        <time>2016-10-15T08:07:13.778Z</time>
      </trkpt>
      <trkpt lat="43.42013" lon="1.51533">
        <ele>195.343</ele>
        <time>2016-10-15T08:07:20.747Z</time>
      </trkpt>
      <trkpt lat="43.42005" lon="1.51542">
        <ele>195.743</ele>
        <time>2016-10-15T08:07:28.625Z</time>
      </trkpt>
      <trkpt lat="43.41997" lon="1.5155">
        <ele>196.11</ele>
        <time>2016-10-15T08:07:36.598Z</time>
      </trkpt>
      <trkpt lat="43.4199" lon="1.51558">
        <ele>196.461</ele>
        <time>2016-10-15T08:07:44.828Z</time>
      </trkpt>
      <trkpt lat="43.41984" lon="1.51568">
        <ele>196.798</ele>
        <time>2016-10-15T08:07:53.249Z</time>
      </trkpt>
      <trkpt lat="43.41976" lon="1.51576">
        <ele>197.155</ele>
        <time>2016-10-15T08:08:00.850Z</time>
      </trkpt>
      <trkpt lat="43.41969" lon="1.51584">
        <ele>197.545</ele>
        <time>2016-10-15T08:08:07.706Z</time>
      </trkpt>
      <trkpt lat="43.41963" lon="1.51594">
        <ele>197.912</ele>
        <time>2016-10-15T08:08:15.356Z</time>
      </trkpt>
      <trkpt lat="43.41955" lon="1.51603">
        <ele>198.172</ele>
        <time>2016-10-15T08:08:23.741Z</time>
      </trkpt>
      <trkpt lat="43.41949" lon="1.51612">
        <ele>198.38</ele>
        <time>2016-10-15T08:08:31.933Z</time>
      </trkpt>
      <trkpt lat="43.41942" lon="1.51623">
        <ele>198.679</ele>
        <time>2016-10-15T08:08:41.029Z</time>
      </trkpt>
      <trkpt lat="43.41935" lon="1.51631">
        <ele>199.092</ele>
        <time>2016-10-15T08:08:48.758Z</time>
      </trkpt>
      <trkpt lat="43.41927" lon="1.5164">
        <ele>199.584</ele>
        <time>2016-10-15T08:08:56.819Z</time>
      </trkpt>
      <trkpt lat="43.41921" lon="1.51648">
        <ele>200.093</ele>
        <time>2016-10-15T08:09:04.362Z</time>
      </trkpt>
      <trkpt lat="43.41913" lon="1.51656">
        <ele>200.524</ele>
        <time>2016-10-15T08:09:12.256Z</time>
      </trkpt>
      <trkpt lat="43.41907" lon="1.51666">
        <ele>200.893</ele>
        <time>2016-10-15T08:09:20.627Z</time>
      </trkpt>
      <trkpt lat="43.419" lon="1.51674">
        <ele>201.247</ele>
        <time>2016-10-15T08:09:28.827Z</time>
      </trkpt>
      <trkpt lat="43.41892" lon="1.51684">
        <ele>201.561</ele>
        <time>2016-10-15T08:09:37.366Z</time>
      </trkpt>
      <trkpt lat="43.41885" lon="1.51693">
        <ele>201.874</ele>
        <time>2016-10-15T08:09:45.258Z</time>
      </trkpt>
      <trkpt lat="43.41878" lon="1.51701">
        <ele>202.237</ele>
        <time>2016-10-15T08:09:52.608Z</time>
      </trkpt>
      <trkpt lat="43.4187" lon="1.51709">
        <ele>202.625</ele>
        <time>2016-10-15T08:10:01.026Z</time>
      </trkpt>
      <trkpt lat="43.41864" lon="1.51719">
        <ele>203.061</ele>
        <time>2016-10-15T08:10:10.364Z</time>
      </trkpt>
      <trkpt lat="43.41856" lon="1.51725">
        <ele>203.583</ele>
        <time>2016-10-15T08:10:18.645Z</time>
      </trkpt>
      <trkpt lat="43.41848" lon="1.51733">
        <ele>204.174</ele>
        <time>2016-10-15T08:10:27.505Z</time>
      </trkpt>
      <trkpt lat="43.41842" lon="1.51744">
        <ele>204.854</ele>
        <time>2016-10-15T08:10:35.885Z</time>
      </trkpt>
      <trkpt lat="43.41835" lon="1.51754">
        <ele>205.566</ele>
        <time>2016-10-15T08:10:43.240Z</time>
      </trkpt>
      <trkpt lat="43.4183" lon="1.51765">
        <ele>206.195</ele>
        <time>2016-10-15T08:10:50.156Z</time>
      </trkpt>
      <trkpt lat="43.41827" lon="1.51777">
        <ele>206.718</ele>
        <time>2016-10-15T08:10:57.520Z</time>
      </trkpt>
      <trkpt lat="43.41825" lon="1.51789">
        <ele>207.161</ele>
        <time>2016-10-15T08:11:05.267Z</time>
      </trkpt>
      <trkpt lat="43.41823" lon="1.51802">
        <ele>207.573</ele>
        <time>2016-10-15T08:11:14.344Z</time>
      </trkpt>
      <trkpt lat="43.4182" lon="1.51816">
        <ele>208.001</ele>
        <time>2016-10-15T08:11:23.197Z</time>
      </trkpt>
      <trkpt lat="43.41818" lon="1.51829">
        <ele>208.436</ele>
        <time>2016-10-15T08:11:31.185Z</time>
      </trkpt>
      <trkpt lat="43.41816" lon="1.51841">
        <ele>208.847</ele>
        <time>2016-10-15T08:11:38.747Z</time>
      </trkpt>
      <trkpt lat="43.41813" lon="1.51853">
        <ele>209.265</ele>
        <time>2016-10-15T08:11:46.739Z</time>
      </trkpt>
      <trkpt lat="43.4181" lon="1.51866">
        <ele>209.742</ele>
        <time>2016-10-15T08:11:54.883Z</time>
      </trkpt>
      <trkpt lat="43.41806" lon="1.51878">
        <ele>210.288</ele>
        <time>2016-10-15T08:12:02.955Z</time>
      </trkpt>
      <trkpt lat="43.41803" lon="1.51891">
        <ele>210.859</ele>
        <time>2016-10-15T08:12:10.855Z</time>
      </trkpt>
      <trkpt lat="43.41801" lon="1.51903">
        <ele>211.335</ele>
        <time>2016-10-15T08:12:18.321Z</time>
      </trkpt>
      <trkpt lat="43.41798" lon="1.51916">
        <ele>211.701</ele>
        <time>2016-10-15T08:12:26.700Z</time>
      </trkpt>
      <trkpt lat="43.41797" lon="1.51929">
        <ele>212.087</ele>
        <time>2016-10-15T08:12:35.138Z</time>
      </trkpt>
      <trkpt lat="43.41796" lon="1.51941">
        <ele>212.534</ele>
        <time>2016-10-15T08:12:43.293Z</time>
      </trkpt>
      <trkpt lat="43.41794" lon="1.51954">
        <ele>212.997</ele>
        <time>2016-10-15T08:12:51.842Z</time>
      </trkpt>
      <trkpt lat="43.41792" lon="1.51966">
        <ele>213.465</ele>
        <time>2016-10-15T08:12:59.965Z</time>
      </trkpt>
      <trkpt lat="43.41789" lon="1.51979">
        <ele>213.907</ele>
        <time>2016-10-15T08:13:08.171Z</time>
      </trkpt>
      <trkpt lat="43.41787" lon="1.51992">
        <ele>214.257</ele>
        <time>2016-10-15T08:13:16.540Z</time>
      </trkpt>
      <trkpt lat="43.41785" lon="1.52005">
        <ele>214.521</ele>
        <time>2016-10-15T08:13:24.316Z</time>
      </trkpt>
      <trkpt lat="43.41783" lon="1.52018">
        <ele>214.799</ele>
        <time>2016-10-15T08:13:32.564Z</time>
      </trkpt>
      <trkpt lat="43.41781" lon="1.52031">
        <ele>215.13</ele>
        <time>2016-10-15T08:13:40.925Z</time>
      </trkpt>
      <trkpt lat="43.41777" lon="1.52043">
        <ele>215.452</ele>
        <time>2016-10-15T08:13:48.911Z</time>
      </trkpt>
      <trkpt lat="43.41773" lon="1.52055">
        <ele>215.673</ele>
        <time>2016-10-15T08:13:56.602Z</time>
      </trkpt>
      <trkpt lat="43.41769" lon="1.52067">
        <ele>215.818</ele>
        <time>2016-10-15T08:14:03.691Z</time>
      </trkpt>
      <trkpt lat="43.41765" lon="1.52079">
        <ele>215.956</ele>
        <time>2016-10-15T08:14:10.998Z</time>
      </trkpt>
      <trkpt lat="43.41765" lon="1.52079">
        <ele>216.067</ele>
        <time>2016-10-15T08:14:23.998Z</time>
      </trkpt>
      <trkpt lat="43.41765" lon="1.52079">
        <ele>216.077</ele>
        <time>2016-10-15T08:19:20.289Z</time>
      </trkpt>
      <trkpt lat="43.41758" lon="1.52102">
        <ele>215.966</ele>
        <time>2016-10-15T08:19:51.010Z</time>
      </trkpt>
      <trkpt lat="43.41755" lon="1.52114">
        <ele>214.845</ele>
        <time>2016-10-15T08:20:00.804Z</time>
      </trkpt>
      <trkpt lat="43.41752" lon="1.52126">
        <ele>212.229</ele>
        <time>2016-10-15T08:20:09.196Z</time>
      </trkpt>
      <trkpt lat="43.41748" lon="1.52138">
        <ele>209.605</ele>
        <time>2016-10-15T08:20:17.418Z</time>
      </trkpt>
      <trkpt lat="43.41741" lon="1.52148">
        <ele>208.338</ele>
        <time>2016-10-15T08:20:24.926Z</time>
      </trkpt>
      <trkpt lat="43.41737" lon="1.52159">
        <ele>208.059</ele>
        <time>2016-10-15T08:20:32.701Z</time>
      </trkpt>
      <trkpt lat="43.41733" lon="1.52171">
        <ele>208.122</ele>
        <time>2016-10-15T08:20:40.956Z</time>
      </trkpt>
      <trkpt lat="43.41733" lon="1.52184">
        <ele>208.189</ele>
        <time>2016-10-15T08:20:48.433Z</time>
      </trkpt>
      <trkpt lat="43.41741" lon="1.52192">
        <ele>208.207</ele>
        <time>2016-10-15T08:20:55.912Z</time>
      </trkpt>
      <trkpt lat="43.4175" lon="1.52197">
        <ele>208.225</ele>
        <time>2016-10-15T08:21:02.795Z</time>
      </trkpt>
      <trkpt lat="43.41759" lon="1.52203">
        <ele>208.283</ele>
        <time>2016-10-15T08:21:10.437Z</time>
      </trkpt>
      <trkpt lat="43.41767" lon="1.5221">
        <ele>208.374</ele>
        <time>2016-10-15T08:21:18.272Z</time>
      </trkpt>
      <trkpt lat="43.41776" lon="1.52215">
        <ele>208.476</ele>
        <time>2016-10-15T08:21:26.171Z</time>
      </trkpt>
      <trkpt lat="43.41785" lon="1.5222">
        <ele>208.623</ele>
        <time>2016-10-15T08:21:34.054Z</time>
      </trkpt>
      <trkpt lat="43.41794" lon="1.52224">
        <ele>208.827</ele>
        <time>2016-10-15T08:21:41.973Z</time>
      </trkpt>
      <trkpt lat="43.41803" lon="1.52228">
        <ele>209.013</ele>
        <time>2016-10-15T08:21:49.862Z</time>
      </trkpt>
      <trkpt lat="43.41813" lon="1.52232">
        <ele>209.143</ele>
        <time>2016-10-15T08:21:57.873Z</time>
      </trkpt>
      <trkpt lat="43.41821" lon="1.52237">
        <ele>209.253</ele>
        <time>2016-10-15T08:22:05.842Z</time>
      </trkpt>
      <trkpt lat="43.4183" lon="1.52239">
        <ele>209.36</ele>
        <time>2016-10-15T08:22:14.665Z</time>
      </trkpt>
      <trkpt lat="43.4184" lon="1.52243">
        <ele>209.438</ele>
        <time>2016-10-15T08:22:23.969Z</time>
      </trkpt>
      <trkpt lat="43.4185" lon="1.52246">
        <ele>209.942</ele>
        <time>2016-10-15T08:22:31.668Z</time>
      </trkpt>
      <trkpt lat="43.41859" lon="1.5225">
        <ele>211.274</ele>
        <time>2016-10-15T08:22:38.956Z</time>
      </trkpt>
      <trkpt lat="43.41868" lon="1.52254">
        <ele>212.829</ele>
        <time>2016-10-15T08:22:46.618Z</time>
      </trkpt>
      <trkpt lat="43.41877" lon="1.52258">
        <ele>213.796</ele>
        <time>2016-10-15T08:22:54.824Z</time>
      </trkpt>
      <trkpt lat="43.41886" lon="1.52263">
        <ele>214.16</ele>
        <time>2016-10-15T08:23:02.854Z</time>
      </trkpt>
      <trkpt lat="43.41895" lon="1.52268">
        <ele>214.21</ele>
        <time>2016-10-15T08:23:10.876Z</time>
      </trkpt>
      <trkpt lat="43.41902" lon="1.52275">
        <ele>214.119</ele>
        <time>2016-10-15T08:23:18.406Z</time>
      </trkpt>
      <trkpt lat="43.4191" lon="1.52283">
        <ele>213.88</ele>
        <time>2016-10-15T08:23:26.678Z</time>
      </trkpt>
      <trkpt lat="43.41918" lon="1.52289">
        <ele>213.484</ele>
        <time>2016-10-15T08:23:35.640Z</time>
      </trkpt>
      <trkpt lat="43.41926" lon="1.52296">
        <ele>212.942</ele>
        <time>2016-10-15T08:23:43.665Z</time>
      </trkpt>
      <trkpt lat="43.41934" lon="1.52302">
        <ele>212.231</ele>
        <time>2016-10-15T08:23:50.043Z</time>
      </trkpt>
      <trkpt lat="43.41942" lon="1.52308">
        <ele>211.422</ele>
        <time>2016-10-15T08:23:56.244Z</time>
      </trkpt>
      <trkpt lat="43.4195" lon="1.52314">
        <ele>210.648</ele>
        <time>2016-10-15T08:24:02.904Z</time>
      </trkpt>
      <trkpt lat="43.41959" lon="1.5232">
        <ele>209.923</ele>
        <time>2016-10-15T08:24:11.019Z</time>
      </trkpt>
      <trkpt lat="43.41968" lon="1.52327">
        <ele>209.184</ele>
        <time>2016-10-15T08:24:19.067Z</time>
      </trkpt>
      <trkpt lat="43.41976" lon="1.52334">
        <ele>208.352</ele>
        <time>2016-10-15T08:24:26.552Z</time>
      </trkpt>
      <trkpt lat="43.41984" lon="1.52342">
        <ele>207.474</ele>
        <time>2016-10-15T08:24:34.175Z</time>
      </trkpt>
      <trkpt lat="43.41992" lon="1.5235">
        <ele>206.671</ele>
        <time>2016-10-15T08:24:41.901Z</time>
      </trkpt>
      <trkpt lat="43.42001" lon="1.52357">
        <ele>205.927</ele>
        <time>2016-10-15T08:24:49.805Z</time>
      </trkpt>
      <trkpt lat="43.4201" lon="1.52364">
        <ele>205.165</ele>
        <time>2016-10-15T08:24:57.762Z</time>
      </trkpt>
      <trkpt lat="43.42018" lon="1.52372">
        <ele>204.441</ele>
        <time>2016-10-15T08:25:05.795Z</time>
      </trkpt>
      <trkpt lat="43.42025" lon="1.52381">
        <ele>203.877</ele>
        <time>2016-10-15T08:25:13.153Z</time>
      </trkpt>
      <trkpt lat="43.42032" lon="1.52389">
        <ele>203.497</ele>
        <time>2016-10-15T08:25:21.450Z</time>
      </trkpt>
      <trkpt lat="43.42039" lon="1.52397">
        <ele>203.222</ele>
        <time>2016-10-15T08:25:29.043Z</time>
      </trkpt>
      <trkpt lat="43.42048" lon="1.52402">
        <ele>203.042</ele>
        <time>2016-10-15T08:25:36.717Z</time>
      </trkpt>
      <trkpt lat="43.42053" lon="1.52413">
        <ele>203.017</ele>
        <time>2016-10-15T08:25:44.563Z</time>
      </trkpt>
      <trkpt lat="43.4206" lon="1.52422">
        <ele>203.157</ele>
        <time>2016-10-15T08:25:52.216Z</time>
      </trkpt>
      <trkpt lat="43.42068" lon="1.52431">
        <ele>203.407</ele>
        <time>2016-10-15T08:26:00.702Z</time>
      </trkpt>
      <trkpt lat="43.42076" lon="1.52438">
        <ele>203.743</ele>
        <time>2016-10-15T08:26:08.132Z</time>
      </trkpt>
      <trkpt lat="43.42082" lon="1.52447">
        <ele>204.251</ele>
        <time>2016-10-15T08:26:15.163Z</time>
      </trkpt>
      <trkpt lat="43.42088" lon="1.52457">
        <ele>205.036</ele>
        <time>2016-10-15T08:26:22.079Z</time>
      </trkpt>
      <trkpt lat="43.42092" lon="1.5247">
        <ele>206.013</ele>
        <time>2016-10-15T08:26:29.747Z</time>
      </trkpt>
      <trkpt lat="43.42095" lon="1.52482">
        <ele>206.991</ele>
        <time>2016-10-15T08:26:36.923Z</time>
      </trkpt>
      <trkpt lat="43.421" lon="1.52495">
        <ele>207.903</ele>
        <time>2016-10-15T08:26:44.583Z</time>
      </trkpt>
      <trkpt lat="43.42103" lon="1.52507">
        <ele>208.828</ele>
        <time>2016-10-15T08:26:52.275Z</time>
      </trkpt>
      <trkpt lat="43.42107" lon="1.5252">
        <ele>209.861</ele>
        <time>2016-10-15T08:27:00.143Z</time>
      </trkpt>
      <trkpt lat="43.42109" lon="1.52532">
        <ele>211.03</ele>
        <time>2016-10-15T08:27:07.731Z</time>
      </trkpt>
      <trkpt lat="43.42112" lon="1.52545">
        <ele>212.235</ele>
        <time>2016-10-15T08:27:15.814Z</time>
      </trkpt>
      <trkpt lat="43.42114" lon="1.52559">
        <ele>213.366</ele>
        <time>2016-10-15T08:27:23.797Z</time>
      </trkpt>
      <trkpt lat="43.42117" lon="1.52572">
        <ele>214.404</ele>
        <time>2016-10-15T08:27:31.394Z</time>
      </trkpt>
      <trkpt lat="43.42123" lon="1.52582">
        <ele>215.363</ele>
        <time>2016-10-15T08:27:39.203Z</time>
      </trkpt>
      <trkpt lat="43.42128" lon="1.52593">
        <ele>216.257</ele>
        <time>2016-10-15T08:27:47.129Z</time>
      </trkpt>
      <trkpt lat="43.42132" lon="1.52606">
        <ele>217.135</ele>
        <time>2016-10-15T08:27:55.574Z</time>
      </trkpt>
      <trkpt lat="43.42136" lon="1.52619">
        <ele>218.033</ele>
        <time>2016-10-15T08:28:02.905Z</time>
      </trkpt>
      <trkpt lat="43.4214" lon="1.52631">
        <ele>218.831</ele>
        <time>2016-10-15T08:28:09.754Z</time>
      </trkpt>
      <trkpt lat="43.42146" lon="1.52641">
        <ele>218.911</ele>
        <time>2016-10-15T08:28:16.840Z</time>
      </trkpt>
      <trkpt lat="43.42155" lon="1.52642">
        <ele>217.996</ele>
        <time>2016-10-15T08:28:24.615Z</time>
      </trkpt>
      <trkpt lat="43.42164" lon="1.52648">
        <ele>217.017</ele>
        <time>2016-10-15T08:28:33.188Z</time>
      </trkpt>
      <trkpt lat="43.42173" lon="1.52651">
        <ele>216.897</ele>
        <time>2016-10-15T08:28:40.374Z</time>
      </trkpt>
      <trkpt lat="43.42182" lon="1.52656">
        <ele>217.513</ele>
        <time>2016-10-15T08:28:47.463Z</time>
      </trkpt>
      <trkpt lat="43.4219" lon="1.52661">
        <ele>218.424</ele>
        <time>2016-10-15T08:28:54.271Z</time>
      </trkpt>
      <trkpt lat="43.42199" lon="1.52667">
        <ele>219.295</ele>
        <time>2016-10-15T08:29:01.952Z</time>
      </trkpt>
      <trkpt lat="43.42207" lon="1.52674">
        <ele>220.011</ele>
        <time>2016-10-15T08:29:09.190Z</time>
      </trkpt>
      <trkpt lat="43.42215" lon="1.52683">
        <ele>220.666</ele>
        <time>2016-10-15T08:29:16.057Z</time>
      </trkpt>
      <trkpt lat="43.42222" lon="1.52691">
        <ele>221.269</ele>
        <time>2016-10-15T08:29:23.389Z</time>
      </trkpt>
      <trkpt lat="43.42229" lon="1.52698">
        <ele>221.719</ele>
        <time>2016-10-15T08:29:30.590Z</time>
      </trkpt>
      <trkpt lat="43.42236" lon="1.52707">
        <ele>222.054</ele>
        <time>2016-10-15T08:29:37.995Z</time>
      </trkpt>
      <trkpt lat="43.42236" lon="1.52707">
        <ele>222.308</ele>
        <time>2016-10-15T08:29:43.995Z</time>
      </trkpt>
      <trkpt lat="43.42236" lon="1.52707">
        <ele>222.39</ele>
        <time>2016-10-15T08:31:11.370Z</time>
      </trkpt>
      <trkpt lat="43.42242" lon="1.52738">
        <ele>222.285</ele>
        <time>2016-10-15T08:31:41.316Z</time>
      </trkpt>
      <trkpt lat="43.4224" lon="1.5275">
        <ele>222.341</ele>
        <time>2016-10-15T08:31:50.315Z</time>
      </trkpt>
      <trkpt lat="43.4224" lon="1.52763">
        <ele>222.861</ele>
        <time>2016-10-15T08:31:58.834Z</time>
      </trkpt>
      <trkpt lat="43.42242" lon="1.52776">
        <ele>223.745</ele>
        <time>2016-10-15T08:32:06.880Z</time>
      </trkpt>
      <trkpt lat="43.42242" lon="1.52789">
        <ele>224.766</ele>
        <time>2016-10-15T08:32:15.709Z</time>
      </trkpt>
      <trkpt lat="43.42243" lon="1.52801">
        <ele>225.732</ele>
        <time>2016-10-15T08:32:24.327Z</time>
      </trkpt>
      <trkpt lat="43.42243" lon="1.52814">
        <ele>226.473</ele>
        <time>2016-10-15T08:32:32.628Z</time>
      </trkpt>
      <trkpt lat="43.42242" lon="1.52828">
        <ele>226.987</ele>
        <time>2016-10-15T08:32:41.125Z</time>
      </trkpt>
      <trkpt lat="43.42242" lon="1.52842">
        <ele>227.352</ele>
        <time>2016-10-15T08:32:49.500Z</time>
      </trkpt>
      <trkpt lat="43.42243" lon="1.52855">
        <ele>227.683</ele>
        <time>2016-10-15T08:32:57.842Z</time>
      </trkpt>
      <trkpt lat="43.42243" lon="1.52868">
        <ele>228.043</ele>
        <time>2016-10-15T08:33:06.627Z</time>
      </trkpt>
      <trkpt lat="43.42243" lon="1.5288">
        <ele>228.407</ele>
        <time>2016-10-15T08:33:15.117Z</time>
      </trkpt>
      <trkpt lat="43.42244" lon="1.52894">
        <ele>228.749</ele>
        <time>2016-10-15T08:33:23.951Z</time>
      </trkpt>
      <trkpt lat="43.42246" lon="1.52906">
        <ele>229.125</ele>
        <time>2016-10-15T08:33:31.663Z</time>
      </trkpt>
      <trkpt lat="43.42245" lon="1.52919">
        <ele>229.588</ele>
        <time>2016-10-15T08:33:38.773Z</time>
      </trkpt>
      <trkpt lat="43.42245" lon="1.52933">
        <ele>230.105</ele>
        <time>2016-10-15T08:33:46.682Z</time>
      </trkpt>
      <trkpt lat="43.42245" lon="1.52947">
        <ele>230.565</ele>
        <time>2016-10-15T08:33:54.828Z</time>
      </trkpt>
      <trkpt lat="43.42246" lon="1.5296">
        <ele>230.953</ele>
        <time>2016-10-15T08:34:03.211Z</time>
      </trkpt>
      <trkpt lat="43.42245" lon="1.52973">
        <ele>231.319</ele>
        <time>2016-10-15T08:34:11.385Z</time>
      </trkpt>
      <trkpt lat="43.42244" lon="1.52987">
        <ele>231.685</ele>
        <time>2016-10-15T08:34:19.901Z</time>
      </trkpt>
      <trkpt lat="43.42244" lon="1.52999">
        <ele>232.128</ele>
        <time>2016-10-15T08:34:27.962Z</time>
      </trkpt>
      <trkpt lat="43.42243" lon="1.53012">
        <ele>232.65</ele>
        <time>2016-10-15T08:34:35.644Z</time>
      </trkpt>
      <trkpt lat="43.42244" lon="1.53025">
        <ele>233.106</ele>
        <time>2016-10-15T08:34:43.303Z</time>
      </trkpt>
      <trkpt lat="43.42243" lon="1.53037">
        <ele>233.462</ele>
        <time>2016-10-15T08:34:50.651Z</time>
      </trkpt>
      <trkpt lat="43.42243" lon="1.5305">
        <ele>233.81</ele>
        <time>2016-10-15T08:34:58.138Z</time>
      </trkpt>
      <trkpt lat="43.42243" lon="1.53064">
        <ele>234.197</ele>
        <time>2016-10-15T08:35:06.187Z</time>
      </trkpt>
      <trkpt lat="43.42243" lon="1.53077">
        <ele>234.611</ele>
        <time>2016-10-15T08:35:13.860Z</time>
      </trkpt>
      <trkpt lat="43.42244" lon="1.5309">
        <ele>235.027</ele>
        <time>2016-10-15T08:35:21.639Z</time>
      </trkpt>
      <trkpt lat="43.42243" lon="1.53102">
        <ele>235.449</ele>
        <time>2016-10-15T08:35:29.360Z</time>
      </trkpt>
      <trkpt lat="43.42244" lon="1.53115">
        <ele>235.888</ele>
        <time>2016-10-15T08:35:37.380Z</time>
      </trkpt>
      <trkpt lat="43.42245" lon="1.53129">
        <ele>236.388</ele>
        <time>2016-10-15T08:35:45.348Z</time>
      </trkpt>
      <trkpt lat="43.42245" lon="1.53141">
        <ele>236.954</ele>
        <time>2016-10-15T08:35:53.012Z</time>
      </trkpt>
      <trkpt lat="43.42245" lon="1.53155">
        <ele>237.503</ele>
        <time>2016-10-15T08:36:00.877Z</time>
      </trkpt>
      <trkpt lat="43.42243" lon="1.53167">
        <ele>237.971</ele>
        <time>2016-10-15T08:36:08.171Z</time>
      </trkpt>
      <trkpt lat="43.42243" lon="1.53181">
        <ele>238.4</ele>
        <time>2016-10-15T08:36:15.714Z</time>
      </trkpt>
      <trkpt lat="43.42242" lon="1.53194">
        <ele>238.878</ele>
        <time>2016-10-15T08:36:23.006Z</time>
      </trkpt>
      <trkpt lat="43.42242" lon="1.53207">
        <ele>239.467</ele>
        <time>2016-10-15T08:36:30.606Z</time>
      </trkpt>
      <trkpt lat="43.42241" lon="1.53219">
        <ele>240.113</ele>
        <time>2016-10-15T08:36:38.631Z</time>
      </trkpt>
      <trkpt lat="43.42242" lon="1.53232">
        <ele>240.623</ele>
        <time>2016-10-15T08:36:46.928Z</time>
      </trkpt>
      <trkpt lat="43.42242" lon="1.53244">
        <ele>240.921</ele>
        <time>2016-10-15T08:36:54.434Z</time>
      </trkpt>
      <trkpt lat="43.42243" lon="1.53258">
        <ele>241.104</ele>
        <time>2016-10-15T08:37:02.601Z</time>
      </trkpt>
      <trkpt lat="43.42242" lon="1.5327">
        <ele>241.262</ele>
        <time>2016-10-15T08:37:09.890Z</time>
      </trkpt>
      <trkpt lat="43.42243" lon="1.53284">
        <ele>241.425</ele>
        <time>2016-10-15T08:37:17.764Z</time>
      </trkpt>
      <trkpt lat="43.42243" lon="1.53297">
        <ele>241.567</ele>
        <time>2016-10-15T08:37:25.222Z</time>
      </trkpt>
      <trkpt lat="43.42243" lon="1.53309">
        <ele>241.641</ele>
        <time>2016-10-15T08:37:32.957Z</time>
      </trkpt>
      <trkpt lat="43.42243" lon="1.53323">
        <ele>241.675</ele>
        <time>2016-10-15T08:37:40.636Z</time>
      </trkpt>
      <trkpt lat="43.42244" lon="1.53336">
        <ele>241.722</ele>
        <time>2016-10-15T08:37:47.515Z</time>
      </trkpt>
      <trkpt lat="43.42245" lon="1.53349">
        <ele>241.802</ele>
        <time>2016-10-15T08:37:54.267Z</time>
      </trkpt>
      <trkpt lat="43.42244" lon="1.53363">
        <ele>241.902</ele>
        <time>2016-10-15T08:38:01.519Z</time>
      </trkpt>
      <trkpt lat="43.42244" lon="1.53375">
        <ele>242.007</ele>
        <time>2016-10-15T08:38:08.449Z</time>
      </trkpt>
      <trkpt lat="43.42244" lon="1.53388">
        <ele>242.12</ele>
        <time>2016-10-15T08:38:15.585Z</time>
      </trkpt>
      <trkpt lat="43.42246" lon="1.53402">
        <ele>242.303</ele>
        <time>2016-10-15T08:38:23.646Z</time>
      </trkpt>
      <trkpt lat="43.42245" lon="1.53414">
        <ele>242.599</ele>
        <time>2016-10-15T08:38:30.162Z</time>
      </trkpt>
      <trkpt lat="43.42246" lon="1.53428">
        <ele>242.943</ele>
        <time>2016-10-15T08:38:37.572Z</time>
      </trkpt>
      <trkpt lat="43.42247" lon="1.53441">
        <ele>243.303</ele>
        <time>2016-10-15T08:38:45.895Z</time>
      </trkpt>
      <trkpt lat="43.42246" lon="1.53454">
        <ele>243.75</ele>
        <time>2016-10-15T08:38:53.108Z</time>
      </trkpt>
      <trkpt lat="43.42245" lon="1.53466">
        <ele>244.335</ele>
        <time>2016-10-15T08:39:00.082Z</time>
      </trkpt>
      <trkpt lat="43.42244" lon="1.5348">
        <ele>245.05</ele>
        <time>2016-10-15T08:39:07.273Z</time>
      </trkpt>
      <trkpt lat="43.42246" lon="1.53493">
        <ele>245.753</ele>
        <time>2016-10-15T08:39:14.337Z</time>
      </trkpt>
      <trkpt lat="43.42251" lon="1.53504">
        <ele>246.342</ele>
        <time>2016-10-15T08:39:22.182Z</time>
      </trkpt>
      <trkpt lat="43.42256" lon="1.53514">
        <ele>246.886</ele>
        <time>2016-10-15T08:39:29.615Z</time>
      </trkpt>
      <trkpt lat="43.4226" lon="1.53525">
        <ele>247.396</ele>
        <time>2016-10-15T08:39:37.687Z</time>
      </trkpt>
      <trkpt lat="43.42262" lon="1.53538">
        <ele>247.796</ele>
        <time>2016-10-15T08:39:46.461Z</time>
      </trkpt>
      <trkpt lat="43.42263" lon="1.53551">
        <ele>248.168</ele>
        <time>2016-10-15T08:39:53.950Z</time>
      </trkpt>
      <trkpt lat="43.42266" lon="1.53564">
        <ele>248.58</ele>
        <time>2016-10-15T08:40:02.057Z</time>
      </trkpt>
      <trkpt lat="43.42268" lon="1.53577">
        <ele>249.022</ele>
        <time>2016-10-15T08:40:10.000Z</time>
      </trkpt>
      <trkpt lat="43.42268" lon="1.53577">
        <ele>249.455</ele>
        <time>2016-10-15T08:40:13.000Z</time>
      </trkpt>
      <trkpt lat="43.42268" lon="1.53577">
        <ele>249.678</ele>
        <time>2016-10-15T08:41:43.625Z</time>
      </trkpt>
      <trkpt lat="43.4227" lon="1.53597">
        <ele>249.559</ele>
        <time>2016-10-15T08:42:11.524Z</time>
      </trkpt>
      <trkpt lat="43.42271" lon="1.53609">
        <ele>249.458</ele>
        <time>2016-10-15T08:42:20.775Z</time>
      </trkpt>
      <trkpt lat="43.42272" lon="1.53622">
        <ele>249.685</ele>
        <time>2016-10-15T08:42:29.415Z</time>
      </trkpt>
      <trkpt lat="43.42272" lon="1.53636">
        <ele>250.03</ele>
        <time>2016-10-15T08:42:37.624Z</time>
      </trkpt>
      <trkpt lat="43.42271" lon="1.53648">
        <ele>250.201</ele>
        <time>2016-10-15T08:42:44.996Z</time>
      </trkpt>
      <trkpt lat="43.4227" lon="1.53661">
        <ele>250.168</ele>
        <time>2016-10-15T08:42:53.554Z</time>
      </trkpt>
      <trkpt lat="43.42268" lon="1.53674">
        <ele>250.028</ele>
        <time>2016-10-15T08:43:02.341Z</time>
      </trkpt>
      <trkpt lat="43.42268" lon="1.53687">
        <ele>249.904</ele>
        <time>2016-10-15T08:43:09.904Z</time>
      </trkpt>
      <trkpt lat="43.42271" lon="1.53698">
        <ele>249.902</ele>
        <time>2016-10-15T08:43:17.380Z</time>
      </trkpt>
      <trkpt lat="43.42281" lon="1.53699">
        <ele>250.027</ele>
        <time>2016-10-15T08:43:26.193Z</time>
      </trkpt>
      <trkpt lat="43.4229" lon="1.53698">
        <ele>250.119</ele>
        <time>2016-10-15T08:43:34.583Z</time>
      </trkpt>
      <trkpt lat="43.423" lon="1.53698">
        <ele>250.066</ele>
        <time>2016-10-15T08:43:43.606Z</time>
      </trkpt>
      <trkpt lat="43.42309" lon="1.53695">
        <ele>250.014</ele>
        <time>2016-10-15T08:43:52.245Z</time>
      </trkpt>
      <trkpt lat="43.42318" lon="1.53692">
        <ele>250.102</ele>
        <time>2016-10-15T08:44:00.609Z</time>
      </trkpt>
      <trkpt lat="43.42326" lon="1.53688">
        <ele>250.182</ele>
        <time>2016-10-15T08:44:08.866Z</time>
      </trkpt>
      <trkpt lat="43.42336" lon="1.53686">
        <ele>249.909</ele>
        <time>2016-10-15T08:44:17.191Z</time>
      </trkpt>
      <trkpt lat="43.42345" lon="1.53682">
        <ele>249.021</ele>
        <time>2016-10-15T08:44:25.043Z</time>
      </trkpt>
      <trkpt lat="43.42354" lon="1.53681">
        <ele>247.524</ele>
        <time>2016-10-15T08:44:32.921Z</time>
      </trkpt>
      <trkpt lat="43.42364" lon="1.5368">
        <ele>245.67</ele>
        <time>2016-10-15T08:44:41.002Z</time>
      </trkpt>
      <trkpt lat="43.42373" lon="1.53676">
        <ele>243.782</ele>
        <time>2016-10-15T08:44:49.309Z</time>
      </trkpt>
      <trkpt lat="43.42383" lon="1.53675">
        <ele>242.062</ele>
        <time>2016-10-15T08:44:56.629Z</time>
      </trkpt>
      <trkpt lat="43.42393" lon="1.53674">
        <ele>240.482</ele>
        <time>2016-10-15T08:45:04.362Z</time>
      </trkpt>
      <trkpt lat="43.42402" lon="1.53668">
        <ele>238.968</ele>
        <time>2016-10-15T08:45:12.499Z</time>
      </trkpt>
      <trkpt lat="43.42411" lon="1.53666">
        <ele>237.621</ele>
        <time>2016-10-15T08:45:20.828Z</time>
      </trkpt>
      <trkpt lat="43.42418" lon="1.53675">
        <ele>236.545</ele>
        <time>2016-10-15T08:45:29.084Z</time>
      </trkpt>
      <trkpt lat="43.42419" lon="1.5369">
        <ele>235.555</ele>
        <time>2016-10-15T08:45:36.515Z</time>
      </trkpt>
      <trkpt lat="43.4242" lon="1.53703">
        <ele>234.501</ele>
        <time>2016-10-15T08:45:43.545Z</time>
      </trkpt>
      <trkpt lat="43.42422" lon="1.53715">
        <ele>233.603</ele>
        <time>2016-10-15T08:45:51.065Z</time>
      </trkpt>
      <trkpt lat="43.42421" lon="1.53728">
        <ele>233.129</ele>
        <time>2016-10-15T08:45:59.411Z</time>
      </trkpt>
      <trkpt lat="43.42418" lon="1.5374">
        <ele>233.11</ele>
        <time>2016-10-15T08:46:07.953Z</time>
      </trkpt>
      <trkpt lat="43.42412" lon="1.5375">
        <ele>233.408</ele>
        <time>2016-10-15T08:46:15.954Z</time>
      </trkpt>
      <trkpt lat="43.42406" lon="1.53761">
        <ele>233.857</ele>
        <time>2016-10-15T08:46:24.374Z</time>
      </trkpt>
      <trkpt lat="43.42399" lon="1.53772">
        <ele>234.388</ele>
        <time>2016-10-15T08:46:32.839Z</time>
      </trkpt>
      <trkpt lat="43.42393" lon="1.53782">
        <ele>235.023</ele>
        <time>2016-10-15T08:46:40.808Z</time>
      </trkpt>
      <trkpt lat="43.42387" lon="1.53792">
        <ele>235.803</ele>
        <time>2016-10-15T08:46:49.193Z</time>
      </trkpt>
      <trkpt lat="43.42381" lon="1.53802">
        <ele>236.747</ele>
        <time>2016-10-15T08:46:56.408Z</time>
      </trkpt>
      <trkpt lat="43.42375" lon="1.53813">
        <ele>237.798</ele>
        <time>2016-10-15T08:47:04.458Z</time>
      </trkpt>
      <trkpt lat="43.42368" lon="1.53823">
        <ele>238.826</ele>
        <time>2016-10-15T08:47:12.256Z</time>
      </trkpt>
      <trkpt lat="43.42363" lon="1.53834">
        <ele>239.751</ele>
        <time>2016-10-15T08:47:20.296Z</time>
      </trkpt>
      <trkpt lat="43.42357" lon="1.53845">
        <ele>240.521</ele>
        <time>2016-10-15T08:47:29.045Z</time>
      </trkpt>
      <trkpt lat="43.42351" lon="1.53855">
        <ele>241.016</ele>
        <time>2016-10-15T08:47:36.769Z</time>
      </trkpt>
      <trkpt lat="43.42346" lon="1.53865">
        <ele>241.23</ele>
        <time>2016-10-15T08:47:44.061Z</time>
      </trkpt>
      <trkpt lat="43.4234" lon="1.53876">
        <ele>241.447</ele>
        <time>2016-10-15T08:47:51.784Z</time>
      </trkpt>
      <trkpt lat="43.42333" lon="1.53886">
        <ele>241.95</ele>
        <time>2016-10-15T08:47:59.955Z</time>
      </trkpt>
      <trkpt lat="43.42326" lon="1.53896">
        <ele>242.747</ele>
        <time>2016-10-15T08:48:07.647Z</time>
      </trkpt>
      <trkpt lat="43.42321" lon="1.53905">
        <ele>243.733</ele>
        <time>2016-10-15T08:48:15.454Z</time>
      </trkpt>
      <trkpt lat="43.42315" lon="1.53916">
        <ele>244.856</ele>
        <time>2016-10-15T08:48:23.307Z</time>
      </trkpt>
      <trkpt lat="43.42309" lon="1.53926">
        <ele>246.112</ele>
        <time>2016-10-15T08:48:30.458Z</time>
      </trkpt>
      <trkpt lat="43.42303" lon="1.53935">
        <ele>247.489</ele>
        <time>2016-10-15T08:48:37.330Z</time>
      </trkpt>
      <trkpt lat="43.42295" lon="1.53944">
        <ele>248.879</ele>
        <time>2016-10-15T08:48:45.140Z</time>
      </trkpt>
      <trkpt lat="43.4229" lon="1.53955">
        <ele>250.211</ele>
        <time>2016-10-15T08:48:52.002Z</time>
      </trkpt>
      <trkpt lat="43.42284" lon="1.53964">
        <ele>251.577</ele>
        <time>2016-10-15T08:48:59.005Z</time>
      </trkpt>
      <trkpt lat="43.42279" lon="1.53975">
        <ele>253.033</ele>
        <time>2016-10-15T08:49:06.443Z</time>
      </trkpt>
      <trkpt lat="43.42286" lon="1.53984">
        <ele>254.449</ele>
        <time>2016-10-15T08:49:14.660Z</time>
      </trkpt>
      <trkpt lat="43.42295" lon="1.53984">
        <ele>255.578</ele>
        <time>2016-10-15T08:49:23.060Z</time>
      </trkpt>
      <trkpt lat="43.42304" lon="1.53989">
        <ele>256.285</ele>
        <time>2016-10-15T08:49:31.599Z</time>
      </trkpt>
      <trkpt lat="43.42313" lon="1.53994">
        <ele>256.616</ele>
        <time>2016-10-15T08:49:40.693Z</time>
      </trkpt>
      <trkpt lat="43.42322" lon="1.53998">
        <ele>256.641</ele>
        <time>2016-10-15T08:49:48.706Z</time>
      </trkpt>
      <trkpt lat="43.42332" lon="1.54003">
        <ele>256.306</ele>
        <time>2016-10-15T08:49:56.604Z</time>
      </trkpt>
      <trkpt lat="43.42341" lon="1.54008">
        <ele>255.59</ele>
        <time>2016-10-15T08:50:04.569Z</time>
      </trkpt>
      <trkpt lat="43.42351" lon="1.54012">
        <ele>254.592</ele>
        <time>2016-10-15T08:50:12.389Z</time>
      </trkpt>
      <trkpt lat="43.4236" lon="1.54014">
        <ele>253.473</ele>
        <time>2016-10-15T08:50:19.447Z</time>
      </trkpt>
      <trkpt lat="43.42369" lon="1.54017">
        <ele>252.371</ele>
        <time>2016-10-15T08:50:26.726Z</time>
      </trkpt>
      <trkpt lat="43.42379" lon="1.5402">
        <ele>251.33</ele>
        <time>2016-10-15T08:50:35.012Z</time>
      </trkpt>
      <trkpt lat="43.42388" lon="1.54024">
        <ele>250.321</ele>
        <time>2016-10-15T08:50:42.920Z</time>
      </trkpt>
      <trkpt lat="43.42398" lon="1.54026">
        <ele>249.395</ele>
        <time>2016-10-15T08:50:50.993Z</time>
      </trkpt>
      <trkpt lat="43.42407" lon="1.5403">
        <ele>248.569</ele>
        <time>2016-10-15T08:50:58.658Z</time>
      </trkpt>
      <trkpt lat="43.42416" lon="1.54034">
        <ele>247.704</ele>
        <time>2016-10-15T08:51:06.813Z</time>
      </trkpt>
      <trkpt lat="43.42425" lon="1.54037">
        <ele>246.7</ele>
        <time>2016-10-15T08:51:15.054Z</time>
      </trkpt>
      <trkpt lat="43.42434" lon="1.5404">
        <ele>245.566</ele>
        <time>2016-10-15T08:51:23.128Z</time>
      </trkpt>
      <trkpt lat="43.42444" lon="1.54043">
        <ele>244.338</ele>
        <time>2016-10-15T08:51:31.034Z</time>
      </trkpt>
      <trkpt lat="43.42453" lon="1.54047">
        <ele>243.094</ele>
        <time>2016-10-15T08:51:38.556Z</time>
      </trkpt>
      <trkpt lat="43.42462" lon="1.54053">
        <ele>241.88</ele>
        <time>2016-10-15T08:51:46.012Z</time>
      </trkpt>
      <trkpt lat="43.42465" lon="1.54065">
        <ele>240.717</ele>
        <time>2016-10-15T08:51:53.307Z</time>
      </trkpt>
      <trkpt lat="43.42461" lon="1.54077">
        <ele>239.792</ele>
        <time>2016-10-15T08:52:01.109Z</time>
      </trkpt>
      <trkpt lat="43.42457" lon="1.5409">
        <ele>239.349</ele>
        <time>2016-10-15T08:52:09.099Z</time>
      </trkpt>
      <trkpt lat="43.42451" lon="1.54101">
        <ele>239.416</ele>
        <time>2016-10-15T08:52:16.917Z</time>
      </trkpt>
      <trkpt lat="43.42446" lon="1.54112">
        <ele>239.772</ele>
        <time>2016-10-15T08:52:24.881Z</time>
      </trkpt>
      <trkpt lat="43.42439" lon="1.54121">
        <ele>240.273</ele>
        <time>2016-10-15T08:52:32.429Z</time>
      </trkpt>
      <trkpt lat="43.42434" lon="1.54133">
        <ele>240.917</ele>
        <time>2016-10-15T08:52:40.014Z</time>
      </trkpt>
      <trkpt lat="43.42428" lon="1.54143">
        <ele>241.633</ele>
        <time>2016-10-15T08:52:47.809Z</time>
      </trkpt>
      <trkpt lat="43.42423" lon="1.54155">
        <ele>242.311</ele>
        <time>2016-10-15T08:52:56.039Z</time>
      </trkpt>
      <trkpt lat="43.4243" lon="1.54164">
        <ele>242.857</ele>
        <time>2016-10-15T08:53:04.867Z</time>
      </trkpt>
      <trkpt lat="43.42435" lon="1.54174">
        <ele>243.032</ele>
        <time>2016-10-15T08:53:13.623Z</time>
      </trkpt>
      <trkpt lat="43.42443" lon="1.54183">
        <ele>242.712</ele>
        <time>2016-10-15T08:53:22.481Z</time>
      </trkpt>
      <trkpt lat="43.4245" lon="1.5419">
        <ele>242.055</ele>
        <time>2016-10-15T08:53:30.447Z</time>
      </trkpt>
      <trkpt lat="43.42457" lon="1.54198">
        <ele>241.304</ele>
        <time>2016-10-15T08:53:37.435Z</time>
      </trkpt>
      <trkpt lat="43.42465" lon="1.54204">
        <ele>240.674</ele>
        <time>2016-10-15T08:53:44.735Z</time>
      </trkpt>
      <trkpt lat="43.42472" lon="1.54212">
        <ele>240.275</ele>
        <time>2016-10-15T08:53:52.479Z</time>
      </trkpt>
      <trkpt lat="43.4248" lon="1.5422">
        <ele>239.966</ele>
        <time>2016-10-15T08:54:01.314Z</time>
      </trkpt>
      <trkpt lat="43.42488" lon="1.54228">
        <ele>239.515</ele>
        <time>2016-10-15T08:54:10.117Z</time>
      </trkpt>
      <trkpt lat="43.42495" lon="1.54237">
        <ele>238.741</ele>
        <time>2016-10-15T08:54:18.789Z</time>
      </trkpt>
      <trkpt lat="43.42503" lon="1.54244">
        <ele>237.529</ele>
        <time>2016-10-15T08:54:27.608Z</time>
      </trkpt>
      <trkpt lat="43.42509" lon="1.54254">
        <ele>235.96</ele>
        <time>2016-10-15T08:54:36.408Z</time>
      </trkpt>
      <trkpt lat="43.42515" lon="1.54264">
        <ele>234.262</ele>
        <time>2016-10-15T08:54:44.394Z</time>
      </trkpt>
      <trkpt lat="43.42522" lon="1.54272">
        <ele>232.6</ele>
        <time>2016-10-15T08:54:51.771Z</time>
      </trkpt>
      <trkpt lat="43.42529" lon="1.5428">
        <ele>231.118</ele>
        <time>2016-10-15T08:54:59.761Z</time>
      </trkpt>
      <trkpt lat="43.42532" lon="1.54294">
        <ele>229.94</ele>
        <time>2016-10-15T08:55:10.655Z</time>
      </trkpt>
      <trkpt lat="43.42537" lon="1.54305">
        <ele>228.929</ele>
        <time>2016-10-15T08:55:21.974Z</time>
      </trkpt>
      <trkpt lat="43.42542" lon="1.54315">
        <ele>227.778</ele>
        <time>2016-10-15T08:55:33.811Z</time>
      </trkpt>
      <trkpt lat="43.42546" lon="1.54327">
        <ele>226.096</ele>
        <time>2016-10-15T08:55:43.720Z</time>
      </trkpt>
      <trkpt lat="43.4255" lon="1.54339">
        <ele>223.821</ele>
        <time>2016-10-15T08:55:52.581Z</time>
      </trkpt>
      <trkpt lat="43.42555" lon="1.5435">
        <ele>221.484</ele>
        <time>2016-10-15T08:56:01.181Z</time>
      </trkpt>
      <trkpt lat="43.42554" lon="1.54363">
        <ele>219.779</ele>
        <time>2016-10-15T08:56:11.243Z</time>
      </trkpt>
      <trkpt lat="43.4256" lon="1.54372">
        <ele>219.173</ele>
        <time>2016-10-15T08:56:22.383Z</time>
      </trkpt>
      <trkpt lat="43.42565" lon="1.54383">
        <ele>219.951</ele>
        <time>2016-10-15T08:56:33.223Z</time>
      </trkpt>
      <trkpt lat="43.42568" lon="1.54396">
        <ele>221.94</ele>
        <time>2016-10-15T08:56:42.368Z</time>
      </trkpt>
      <trkpt lat="43.42573" lon="1.54406">
        <ele>224.378</ele>
        <time>2016-10-15T08:56:50.495Z</time>
      </trkpt>
      <trkpt lat="43.42582" lon="1.54411">
        <ele>226.4</ele>
        <time>2016-10-15T08:56:58.899Z</time>
      </trkpt>
      <trkpt lat="43.42588" lon="1.5442">
        <ele>227.611</ele>
        <time>2016-10-15T08:57:07.100Z</time>
      </trkpt>
      <trkpt lat="43.42587" lon="1.54433">
        <ele>228.079</ele>
        <time>2016-10-15T08:57:15.077Z</time>
      </trkpt>
      <trkpt lat="43.42582" lon="1.54445">
        <ele>228.147</ele>
        <time>2016-10-15T08:57:23.000Z</time>
      </trkpt>
      <trkpt lat="43.42582" lon="1.54445">
        <ele>228.155</ele>
        <time>2016-10-15T08:57:30.000Z</time>
      </trkpt>
      <trkpt lat="43.42582" lon="1.54445">
        <ele>228.146</ele>
        <time>2016-10-15T09:02:37.557Z</time>
      </trkpt>
      <trkpt lat="43.42572" lon="1.54469">
        <ele>228.053</ele>
        <time>2016-10-15T09:03:10.116Z</time>
      </trkpt>
      <trkpt lat="43.42568" lon="1.5448">
        <ele>228.008</ele>
        <time>2016-10-15T09:03:18.257Z</time>
      </trkpt>
      <trkpt lat="43.42562" lon="1.54492">
        <ele>228.285</ele>
        <time>2016-10-15T09:03:26.978Z</time>
      </trkpt>
      <trkpt lat="43.42558" lon="1.54503">
        <ele>228.956</ele>
        <time>2016-10-15T09:03:34.306Z</time>
      </trkpt>
      <trkpt lat="43.42553" lon="1.54515">
        <ele>229.831</ele>
        <time>2016-10-15T09:03:41.951Z</time>
      </trkpt>
      <trkpt lat="43.42549" lon="1.54527">
        <ele>230.772</ele>
        <time>2016-10-15T09:03:48.743Z</time>
      </trkpt>
      <trkpt lat="43.42546" lon="1.5454">
        <ele>231.737</ele>
        <time>2016-10-15T09:03:55.753Z</time>
      </trkpt>
      <trkpt lat="43.42542" lon="1.54553">
        <ele>232.622</ele>
        <time>2016-10-15T09:04:03.269Z</time>
      </trkpt>
      <trkpt lat="43.42538" lon="1.54565">
        <ele>233.371</ele>
        <time>2016-10-15T09:04:10.761Z</time>
      </trkpt>
      <trkpt lat="43.42533" lon="1.54577">
        <ele>234.007</ele>
        <time>2016-10-15T09:04:18.832Z</time>
      </trkpt>
      <trkpt lat="43.42529" lon="1.54589">
        <ele>234.64</ele>
        <time>2016-10-15T09:04:26.325Z</time>
      </trkpt>
      <trkpt lat="43.42521" lon="1.54598">
        <ele>235.387</ele>
        <time>2016-10-15T09:04:34.429Z</time>
      </trkpt>
      <trkpt lat="43.42512" lon="1.54596">
        <ele>236.32</ele>
        <time>2016-10-15T09:04:42.225Z</time>
      </trkpt>
      <trkpt lat="43.42504" lon="1.54589">
        <ele>237.407</ele>
        <time>2016-10-15T09:04:50.289Z</time>
      </trkpt>
      <trkpt lat="43.42496" lon="1.54583">
        <ele>238.452</ele>
        <time>2016-10-15T09:04:57.786Z</time>
      </trkpt>
      <trkpt lat="43.42488" lon="1.5459">
        <ele>239.243</ele>
        <time>2016-10-15T09:05:06.110Z</time>
      </trkpt>
      <trkpt lat="43.42483" lon="1.54603">
        <ele>239.741</ele>
        <time>2016-10-15T09:05:14.487Z</time>
      </trkpt>
      <trkpt lat="43.42479" lon="1.54614">
        <ele>240.063</ele>
        <time>2016-10-15T09:05:21.393Z</time>
      </trkpt>
      <trkpt lat="43.42474" lon="1.54625">
        <ele>240.402</ele>
        <time>2016-10-15T09:05:28.027Z</time>
      </trkpt>
      <trkpt lat="43.42471" lon="1.54637">
        <ele>240.887</ele>
        <time>2016-10-15T09:05:34.910Z</time>
      </trkpt>
      <trkpt lat="43.42467" lon="1.54648">
        <ele>241.532</ele>
        <time>2016-10-15T09:05:41.652Z</time>
      </trkpt>
      <trkpt lat="43.42462" lon="1.54659">
        <ele>242.249</ele>
        <time>2016-10-15T09:05:48.454Z</time>
      </trkpt>
      <trkpt lat="43.42458" lon="1.54671">
        <ele>242.915</ele>
        <time>2016-10-15T09:05:55.463Z</time>
      </trkpt>
      <trkpt lat="43.42454" lon="1.54682">
        <ele>243.462</ele>
        <time>2016-10-15T09:06:02.531Z</time>
      </trkpt>
      <trkpt lat="43.42449" lon="1.54692">
        <ele>243.895</ele>
        <time>2016-10-15T09:06:10.000Z</time>
      </trkpt>
      <trkpt lat="43.42449" lon="1.54692">
        <ele>244.226</ele>
        <time>2016-10-15T09:06:11.000Z</time>
      </trkpt>
      <trkpt lat="43.42449" lon="1.54692">
        <ele>244.353</ele>
        <time>2016-10-15T09:06:17.470Z</time>
      </trkpt>
      <trkpt lat="43.42439" lon="1.54706">
        <ele>244.047</ele>
        <time>2016-10-15T09:06:32.094Z</time>
      </trkpt>
      <trkpt lat="43.42435" lon="1.54718">
        <ele>244.199</ele>
        <time>2016-10-15T09:06:39.582Z</time>
      </trkpt>
      <trkpt lat="43.4243" lon="1.54729">
        <ele>244.949</ele>
        <time>2016-10-15T09:06:46.240Z</time>
      </trkpt>
      <trkpt lat="43.42425" lon="1.54741">
        <ele>245.973</ele>
        <time>2016-10-15T09:06:53.180Z</time>
      </trkpt>
      <trkpt lat="43.42428" lon="1.54753">
        <ele>246.809</ele>
        <time>2016-10-15T09:07:00.580Z</time>
      </trkpt>
      <trkpt lat="43.42437" lon="1.54759">
        <ele>247.387</ele>
        <time>2016-10-15T09:07:08.046Z</time>
      </trkpt>
      <trkpt lat="43.42445" lon="1.54765">
        <ele>247.851</ele>
        <time>2016-10-15T09:07:15.000Z</time>
      </trkpt>
      <trkpt lat="43.42445" lon="1.54765">
        <ele>248.268</ele>
        <time>2016-10-15T09:07:21.000Z</time>
      </trkpt>
      <trkpt lat="43.42445" lon="1.54765">
        <ele>248.466</ele>
        <time>2016-10-15T09:07:35.000Z</time>
      </trkpt>
      <trkpt lat="43.42445" lon="1.54765">
        <ele>248.346</ele>
        <time>2016-10-15T09:09:15.955Z</time>
      </trkpt>
      <trkpt lat="43.42447" lon="1.54788">
        <ele>248.146</ele>
        <time>2016-10-15T09:09:37.000Z</time>
      </trkpt>
      <trkpt lat="43.42447" lon="1.54788">
        <ele>248.08</ele>
        <time>2016-10-15T09:09:40.000Z</time>
      </trkpt>
      <trkpt lat="43.42447" lon="1.54788">
        <ele>248.07</ele>
        <time>2016-10-15T09:10:26.905Z</time>
      </trkpt>
      <trkpt lat="43.42444" lon="1.548">
        <ele>247.872</ele>
        <time>2016-10-15T09:10:53.421Z</time>
      </trkpt>
      <trkpt lat="43.42438" lon="1.5481">
        <ele>247.972</ele>
        <time>2016-10-15T09:11:00.988Z</time>
      </trkpt>
      <trkpt lat="43.42433" lon="1.5482">
        <ele>248.439</ele>
        <time>2016-10-15T09:11:07.913Z</time>
      </trkpt>
      <trkpt lat="43.42429" lon="1.54832">
        <ele>249.021</ele>
        <time>2016-10-15T09:11:15.195Z</time>
      </trkpt>
      <trkpt lat="43.42424" lon="1.54843">
        <ele>249.488</ele>
        <time>2016-10-15T09:11:22.452Z</time>
      </trkpt>
      <trkpt lat="43.42419" lon="1.54854">
        <ele>249.944</ele>
        <time>2016-10-15T09:11:29.590Z</time>
      </trkpt>
      <trkpt lat="43.42414" lon="1.54865">
        <ele>250.403</ele>
        <time>2016-10-15T09:11:36.779Z</time>
      </trkpt>
      <trkpt lat="43.4241" lon="1.54876">
        <ele>250.699</ele>
        <time>2016-10-15T09:11:44.683Z</time>
      </trkpt>
      <trkpt lat="43.42405" lon="1.54887">
        <ele>250.779</ele>
        <time>2016-10-15T09:11:52.125Z</time>
      </trkpt>
      <trkpt lat="43.42401" lon="1.549">
        <ele>250.854</ele>
        <time>2016-10-15T09:11:59.818Z</time>
      </trkpt>
      <trkpt lat="43.42398" lon="1.54912">
        <ele>251.085</ele>
        <time>2016-10-15T09:12:07.056Z</time>
      </trkpt>
      <trkpt lat="43.42407" lon="1.54906">
        <ele>251.289</ele>
        <time>2016-10-15T09:12:16.000Z</time>
      </trkpt>
      <trkpt lat="43.42407" lon="1.54906">
        <ele>251.267</ele>
        <time>2016-10-15T09:12:18.000Z</time>
      </trkpt>
      <trkpt lat="43.42407" lon="1.54906">
        <ele>251.122</ele>
        <time>2016-10-15T09:12:26.605Z</time>
      </trkpt>
      <trkpt lat="43.42416" lon="1.54904">
        <ele>250.959</ele>
        <time>2016-10-15T09:12:52.343Z</time>
      </trkpt>
      <trkpt lat="43.42425" lon="1.54903">
        <ele>250.923</ele>
        <time>2016-10-15T09:13:00.765Z</time>
      </trkpt>
      <trkpt lat="43.42435" lon="1.54902">
        <ele>250.69</ele>
        <time>2016-10-15T09:13:09.382Z</time>
      </trkpt>
      <trkpt lat="43.42444" lon="1.54903">
        <ele>250.084</ele>
        <time>2016-10-15T09:13:17.655Z</time>
      </trkpt>
      <trkpt lat="43.42454" lon="1.54902">
        <ele>249.181</ele>
        <time>2016-10-15T09:13:26.891Z</time>
      </trkpt>
      <trkpt lat="43.42464" lon="1.54902">
        <ele>248.105</ele>
        <time>2016-10-15T09:13:36.499Z</time>
      </trkpt>
      <trkpt lat="43.42474" lon="1.54901">
        <ele>246.869</ele>
        <time>2016-10-15T09:13:46.151Z</time>
      </trkpt>
      <trkpt lat="43.42483" lon="1.54899">
        <ele>245.452</ele>
        <time>2016-10-15T09:13:55.434Z</time>
      </trkpt>
      <trkpt lat="43.42493" lon="1.54898">
        <ele>243.846</ele>
        <time>2016-10-15T09:14:04.906Z</time>
      </trkpt>
      <trkpt lat="43.42502" lon="1.54899">
        <ele>242.172</ele>
        <time>2016-10-15T09:14:13.703Z</time>
      </trkpt>
      <trkpt lat="43.42512" lon="1.54899">
        <ele>240.643</ele>
        <time>2016-10-15T09:14:21.710Z</time>
      </trkpt>
      <trkpt lat="43.42521" lon="1.54899">
        <ele>239.413</ele>
        <time>2016-10-15T09:14:29.480Z</time>
      </trkpt>
      <trkpt lat="43.42531" lon="1.54898">
        <ele>238.523</ele>
        <time>2016-10-15T09:14:37.473Z</time>
      </trkpt>
      <trkpt lat="43.42541" lon="1.54896">
        <ele>237.853</ele>
        <time>2016-10-15T09:14:45.359Z</time>
      </trkpt>
      <trkpt lat="43.42551" lon="1.54896">
        <ele>237.236</ele>
        <time>2016-10-15T09:14:53.209Z</time>
      </trkpt>
      <trkpt lat="43.42561" lon="1.54896">
        <ele>236.577</ele>
        <time>2016-10-15T09:15:01.157Z</time>
      </trkpt>
      <trkpt lat="43.4257" lon="1.54897">
        <ele>235.857</ele>
        <time>2016-10-15T09:15:09.078Z</time>
      </trkpt>
      <trkpt lat="43.4258" lon="1.54896">
        <ele>235.182</ele>
        <time>2016-10-15T09:15:16.841Z</time>
      </trkpt>
      <trkpt lat="43.4259" lon="1.54895">
        <ele>234.696</ele>
        <time>2016-10-15T09:15:24.808Z</time>
      </trkpt>
      <trkpt lat="43.42599" lon="1.54891">
        <ele>234.425</ele>
        <time>2016-10-15T09:15:31.853Z</time>
      </trkpt>
      <trkpt lat="43.42608" lon="1.5489">
        <ele>234.216</ele>
        <time>2016-10-15T09:15:38.808Z</time>
      </trkpt>
      <trkpt lat="43.42618" lon="1.5489">
        <ele>233.887</ele>
        <time>2016-10-15T09:15:46.628Z</time>
      </trkpt>
      <trkpt lat="43.42628" lon="1.5489">
        <ele>233.44</ele>
        <time>2016-10-15T09:15:54.382Z</time>
      </trkpt>
      <trkpt lat="43.42637" lon="1.54888">
        <ele>232.927</ele>
        <time>2016-10-15T09:16:01.443Z</time>
      </trkpt>
      <trkpt lat="43.42647" lon="1.54887">
        <ele>232.351</ele>
        <time>2016-10-15T09:16:08.617Z</time>
      </trkpt>
      <trkpt lat="43.42656" lon="1.54885">
        <ele>231.739</ele>
        <time>2016-10-15T09:16:16.275Z</time>
      </trkpt>
      <trkpt lat="43.42666" lon="1.54884">
        <ele>231.101</ele>
        <time>2016-10-15T09:16:23.991Z</time>
      </trkpt>
      <trkpt lat="43.42676" lon="1.54883">
        <ele>230.423</ele>
        <time>2016-10-15T09:16:31.982Z</time>
      </trkpt>
      <trkpt lat="43.42686" lon="1.54883">
        <ele>229.709</ele>
        <time>2016-10-15T09:16:39.864Z</time>
      </trkpt>
      <trkpt lat="43.42696" lon="1.54883">
        <ele>228.942</ele>
        <time>2016-10-15T09:16:47.860Z</time>
      </trkpt>
      <trkpt lat="43.42706" lon="1.54884">
        <ele>228.139</ele>
        <time>2016-10-15T09:16:55.761Z</time>
      </trkpt>
      <trkpt lat="43.42715" lon="1.54885">
        <ele>227.389</ele>
        <time>2016-10-15T09:17:03.624Z</time>
      </trkpt>
      <trkpt lat="43.42724" lon="1.54883">
        <ele>226.823</ele>
        <time>2016-10-15T09:17:11.256Z</time>
      </trkpt>
      <trkpt lat="43.42727" lon="1.5487">
        <ele>226.531</ele>
        <time>2016-10-15T09:17:19.062Z</time>
      </trkpt>
      <trkpt lat="43.42729" lon="1.54857">
        <ele>226.469</ele>
        <time>2016-10-15T09:17:25.923Z</time>
      </trkpt>
      <trkpt lat="43.42729" lon="1.54844">
        <ele>226.485</ele>
        <time>2016-10-15T09:17:32.776Z</time>
      </trkpt>
      <trkpt lat="43.42731" lon="1.54832">
        <ele>226.485</ele>
        <time>2016-10-15T09:17:39.476Z</time>
      </trkpt>
      <trkpt lat="43.42732" lon="1.54819">
        <ele>226.472</ele>
        <time>2016-10-15T09:17:46.446Z</time>
      </trkpt>
      <trkpt lat="43.42735" lon="1.54807">
        <ele>226.48</ele>
        <time>2016-10-15T09:17:54.008Z</time>
      </trkpt>
      <trkpt lat="43.4274" lon="1.54795">
        <ele>226.521</ele>
        <time>2016-10-15T09:18:01.228Z</time>
      </trkpt>
      <trkpt lat="43.42744" lon="1.54784">
        <ele>226.617</ele>
        <time>2016-10-15T09:18:08.276Z</time>
      </trkpt>
      <trkpt lat="43.42751" lon="1.54775">
        <ele>226.781</ele>
        <time>2016-10-15T09:18:16.030Z</time>
      </trkpt>
      <trkpt lat="43.42757" lon="1.54766">
        <ele>226.974</ele>
        <time>2016-10-15T09:18:24.759Z</time>
      </trkpt>
      <trkpt lat="43.42762" lon="1.54755">
        <ele>227.18</ele>
        <time>2016-10-15T09:18:34.284Z</time>
      </trkpt>
      <trkpt lat="43.42768" lon="1.54744">
        <ele>227.458</ele>
        <time>2016-10-15T09:18:42.457Z</time>
      </trkpt>
      <trkpt lat="43.42773" lon="1.54734">
        <ele>227.834</ele>
        <time>2016-10-15T09:18:49.742Z</time>
      </trkpt>
      <trkpt lat="43.42779" lon="1.54725">
        <ele>228.231</ele>
        <time>2016-10-15T09:18:57.441Z</time>
      </trkpt>
      <trkpt lat="43.42784" lon="1.54714">
        <ele>228.625</ele>
        <time>2016-10-15T09:19:06.175Z</time>
      </trkpt>
      <trkpt lat="43.42788" lon="1.54702">
        <ele>229.091</ele>
        <time>2016-10-15T09:19:14.959Z</time>
      </trkpt>
      <trkpt lat="43.42793" lon="1.5469">
        <ele>229.664</ele>
        <time>2016-10-15T09:19:22.832Z</time>
      </trkpt>
      <trkpt lat="43.42799" lon="1.54679">
        <ele>230.272</ele>
        <time>2016-10-15T09:19:30.880Z</time>
      </trkpt>
      <trkpt lat="43.42805" lon="1.54668">
        <ele>230.824</ele>
        <time>2016-10-15T09:19:38.681Z</time>
      </trkpt>
      <trkpt lat="43.42811" lon="1.54658">
        <ele>231.269</ele>
        <time>2016-10-15T09:19:46.720Z</time>
      </trkpt>
      <trkpt lat="43.42816" lon="1.54648">
        <ele>231.608</ele>
        <time>2016-10-15T09:19:55.378Z</time>
      </trkpt>
      <trkpt lat="43.42822" lon="1.54636">
        <ele>231.973</ele>
        <time>2016-10-15T09:20:04.460Z</time>
      </trkpt>
      <trkpt lat="43.42829" lon="1.54628">
        <ele>232.489</ele>
        <time>2016-10-15T09:20:11.815Z</time>
      </trkpt>
      <trkpt lat="43.42836" lon="1.54619">
        <ele>233.139</ele>
        <time>2016-10-15T09:20:19.621Z</time>
      </trkpt>
      <trkpt lat="43.42842" lon="1.54609">
        <ele>233.828</ele>
        <time>2016-10-15T09:20:27.280Z</time>
      </trkpt>
      <trkpt lat="43.42848" lon="1.54598">
        <ele>234.45</ele>
        <time>2016-10-15T09:20:35.466Z</time>
      </trkpt>
      <trkpt lat="43.42854" lon="1.54588">
        <ele>235.02</ele>
        <time>2016-10-15T09:20:43.522Z</time>
      </trkpt>
      <trkpt lat="43.42863" lon="1.54585">
        <ele>235.654</ele>
        <time>2016-10-15T09:20:51.713Z</time>
      </trkpt>
      <trkpt lat="43.42871" lon="1.54581">
        <ele>236.337</ele>
        <time>2016-10-15T09:20:59.300Z</time>
      </trkpt>
      <trkpt lat="43.42881" lon="1.54577">
        <ele>237.046</ele>
        <time>2016-10-15T09:21:06.972Z</time>
      </trkpt>
      <trkpt lat="43.42889" lon="1.54571">
        <ele>237.876</ele>
        <time>2016-10-15T09:21:15.398Z</time>
      </trkpt>
      <trkpt lat="43.42899" lon="1.54567">
        <ele>238.868</ele>
        <time>2016-10-15T09:21:24.784Z</time>
      </trkpt>
      <trkpt lat="43.42908" lon="1.54562">
        <ele>239.965</ele>
        <time>2016-10-15T09:21:33.266Z</time>
      </trkpt>
      <trkpt lat="43.42916" lon="1.54558">
        <ele>241.094</ele>
        <time>2016-10-15T09:21:41.344Z</time>
      </trkpt>
      <trkpt lat="43.42926" lon="1.54555">
        <ele>242.168</ele>
        <time>2016-10-15T09:21:49.211Z</time>
      </trkpt>
      <trkpt lat="43.42934" lon="1.54551">
        <ele>243.121</ele>
        <time>2016-10-15T09:21:56.931Z</time>
      </trkpt>
      <trkpt lat="43.42943" lon="1.54549">
        <ele>243.963</ele>
        <time>2016-10-15T09:22:04.731Z</time>
      </trkpt>
      <trkpt lat="43.42953" lon="1.5455">
        <ele>244.714</ele>
        <time>2016-10-15T09:22:13.050Z</time>
      </trkpt>
      <trkpt lat="43.42963" lon="1.54553">
        <ele>245.381</ele>
        <time>2016-10-15T09:22:21.317Z</time>
      </trkpt>
      <trkpt lat="43.42972" lon="1.54556">
        <ele>246.002</ele>
        <time>2016-10-15T09:22:28.910Z</time>
      </trkpt>
      <trkpt lat="43.42982" lon="1.54558">
        <ele>246.654</ele>
        <time>2016-10-15T09:22:37.969Z</time>
      </trkpt>
      <trkpt lat="43.42991" lon="1.54561">
        <ele>247.464</ele>
        <time>2016-10-15T09:22:46.918Z</time>
      </trkpt>
      <trkpt lat="43.43" lon="1.54564">
        <ele>248.445</ele>
        <time>2016-10-15T09:22:55.132Z</time>
      </trkpt>
      <trkpt lat="43.43009" lon="1.54566">
        <ele>249.418</ele>
        <time>2016-10-15T09:23:01.980Z</time>
      </trkpt>
      <trkpt lat="43.43018" lon="1.54567">
        <ele>250.249</ele>
        <time>2016-10-15T09:23:09.028Z</time>
      </trkpt>
      <trkpt lat="43.43027" lon="1.54569">
        <ele>250.954</ele>
        <time>2016-10-15T09:23:16.007Z</time>
      </trkpt>
      <trkpt lat="43.43037" lon="1.54571">
        <ele>251.558</ele>
        <time>2016-10-15T09:23:22.408Z</time>
      </trkpt>
      <trkpt lat="43.43046" lon="1.54573">
        <ele>252.109</ele>
        <time>2016-10-15T09:23:28.328Z</time>
      </trkpt>
      <trkpt lat="43.43056" lon="1.54574">
        <ele>252.661</ele>
        <time>2016-10-15T09:23:34.835Z</time>
      </trkpt>
      <trkpt lat="43.43065" lon="1.54574">
        <ele>253.244</ele>
        <time>2016-10-15T09:23:41.262Z</time>
      </trkpt>
      <trkpt lat="43.43074" lon="1.54575">
        <ele>253.86</ele>
        <time>2016-10-15T09:23:47.779Z</time>
      </trkpt>
      <trkpt lat="43.43083" lon="1.54575">
        <ele>254.522</ele>
        <time>2016-10-15T09:23:54.484Z</time>
      </trkpt>
      <trkpt lat="43.43093" lon="1.54573">
        <ele>255.23</ele>
        <time>2016-10-15T09:24:01.363Z</time>
      </trkpt>
      <trkpt lat="43.43102" lon="1.54574">
        <ele>255.948</ele>
        <time>2016-10-15T09:24:07.906Z</time>
      </trkpt>
      <trkpt lat="43.43112" lon="1.54574">
        <ele>256.677</ele>
        <time>2016-10-15T09:24:15.093Z</time>
      </trkpt>
      <trkpt lat="43.43122" lon="1.54575">
        <ele>257.488</ele>
        <time>2016-10-15T09:24:22.614Z</time>
      </trkpt>
      <trkpt lat="43.43132" lon="1.54577">
        <ele>258.362</ele>
        <time>2016-10-15T09:24:29.917Z</time>
      </trkpt>
      <trkpt lat="43.43142" lon="1.5458">
        <ele>259.225</ele>
        <time>2016-10-15T09:24:37.000Z</time>
      </trkpt>
      <trkpt lat="43.43142" lon="1.5458">
        <ele>259.95</ele>
        <time>2016-10-15T09:24:42.000Z</time>
      </trkpt>
      <trkpt lat="43.43142" lon="1.5458">
        <ele>260.275</ele>
        <time>2016-10-15T09:24:42.915Z</time>
      </trkpt>
      <trkpt lat="43.43152" lon="1.54586">
        <ele>260.132</ele>
        <time>2016-10-15T09:25:00.396Z</time>
      </trkpt>
      <trkpt lat="43.4316" lon="1.54592">
        <ele>260.07</ele>
        <time>2016-10-15T09:25:10.848Z</time>
      </trkpt>
      <trkpt lat="43.43169" lon="1.54597">
        <ele>260.547</ele>
        <time>2016-10-15T09:25:19.546Z</time>
      </trkpt>
      <trkpt lat="43.43177" lon="1.54602">
        <ele>261.244</ele>
        <time>2016-10-15T09:25:27.640Z</time>
      </trkpt>
      <trkpt lat="43.43186" lon="1.54608">
        <ele>261.526</ele>
        <time>2016-10-15T09:25:35.190Z</time>
      </trkpt>
      <trkpt lat="43.43194" lon="1.54613">
        <ele>261.258</ele>
        <time>2016-10-15T09:25:42.510Z</time>
      </trkpt>
      <trkpt lat="43.43202" lon="1.5462">
        <ele>260.872</ele>
        <time>2016-10-15T09:25:50.039Z</time>
      </trkpt>
      <trkpt lat="43.4321" lon="1.54627">
        <ele>260.757</ele>
        <time>2016-10-15T09:25:57.275Z</time>
      </trkpt>
      <trkpt lat="43.43218" lon="1.54633">
        <ele>260.975</ele>
        <time>2016-10-15T09:26:04.876Z</time>
      </trkpt>
      <trkpt lat="43.43227" lon="1.54637">
        <ele>261.498</ele>
        <time>2016-10-15T09:26:12.620Z</time>
      </trkpt>
      <trkpt lat="43.43235" lon="1.54641">
        <ele>262.262</ele>
        <time>2016-10-15T09:26:20.000Z</time>
      </trkpt>
      <trkpt lat="43.43235" lon="1.54641">
        <ele>263.051</ele>
        <time>2016-10-15T09:26:20.000Z</time>
      </trkpt>
      <trkpt lat="43.43235" lon="1.54641">
        <ele>263.459</ele>
        <time>2016-10-15T09:26:25.572Z</time>
      </trkpt>
      <trkpt lat="43.43245" lon="1.54647">
        <ele>262.973</ele>
        <time>2016-10-15T09:26:40.059Z</time>
      </trkpt>
      <trkpt lat="43.43255" lon="1.5465">
        <ele>263.155</ele>
        <time>2016-10-15T09:26:48.252Z</time>
      </trkpt>
      <trkpt lat="43.43263" lon="1.54656">
        <ele>264.279</ele>
        <time>2016-10-15T09:26:55.594Z</time>
      </trkpt>
      <trkpt lat="43.43273" lon="1.54662">
        <ele>265.946</ele>
        <time>2016-10-15T09:27:03.353Z</time>
      </trkpt>
      <trkpt lat="43.43281" lon="1.54668">
        <ele>267.568</ele>
        <time>2016-10-15T09:27:10.526Z</time>
      </trkpt>
      <trkpt lat="43.43289" lon="1.54674">
        <ele>268.956</ele>
        <time>2016-10-15T09:27:18.068Z</time>
      </trkpt>
      <trkpt lat="43.43297" lon="1.5468">
        <ele>270.203</ele>
        <time>2016-10-15T09:27:26.000Z</time>
      </trkpt>
      <trkpt lat="43.43297" lon="1.5468">
        <ele>271.35</ele>
        <time>2016-10-15T09:27:29.000Z</time>
      </trkpt>
      <trkpt lat="43.43297" lon="1.5468">
        <ele>271.96</ele>
        <time>2016-10-15T09:33:13.309Z</time>
      </trkpt>
      <trkpt lat="43.43302" lon="1.54668">
        <ele>271.348</ele>
        <time>2016-10-15T09:33:32.273Z</time>
      </trkpt>
      <trkpt lat="43.43305" lon="1.54655">
        <ele>271.343</ele>
        <time>2016-10-15T09:33:43.682Z</time>
      </trkpt>
      <trkpt lat="43.43309" lon="1.54644">
        <ele>272.005</ele>
        <time>2016-10-15T09:33:53.163Z</time>
      </trkpt>
      <trkpt lat="43.43314" lon="1.54634">
        <ele>272.802</ele>
        <time>2016-10-15T09:34:01.493Z</time>
      </trkpt>
      <trkpt lat="43.43319" lon="1.54621">
        <ele>273.269</ele>
        <time>2016-10-15T09:34:10.294Z</time>
      </trkpt>
      <trkpt lat="43.43322" lon="1.54609">
        <ele>273.475</ele>
        <time>2016-10-15T09:34:18.302Z</time>
      </trkpt>
      <trkpt lat="43.43326" lon="1.54597">
        <ele>273.54</ele>
        <time>2016-10-15T09:34:26.231Z</time>
      </trkpt>
      <trkpt lat="43.43329" lon="1.54585">
        <ele>273.508</ele>
        <time>2016-10-15T09:34:34.148Z</time>
      </trkpt>
      <trkpt lat="43.43332" lon="1.54572">
        <ele>273.42</ele>
        <time>2016-10-15T09:34:42.062Z</time>
      </trkpt>
      <trkpt lat="43.43335" lon="1.5456">
        <ele>273.339</ele>
        <time>2016-10-15T09:34:49.863Z</time>
      </trkpt>
      <trkpt lat="43.4334" lon="1.54548">
        <ele>273.299</ele>
        <time>2016-10-15T09:34:57.962Z</time>
      </trkpt>
      <trkpt lat="43.43344" lon="1.54536">
        <ele>273.287</ele>
        <time>2016-10-15T09:35:05.891Z</time>
      </trkpt>
      <trkpt lat="43.43348" lon="1.54523">
        <ele>273.276</ele>
        <time>2016-10-15T09:35:13.877Z</time>
      </trkpt>
      <trkpt lat="43.43352" lon="1.5451">
        <ele>273.249</ele>
        <time>2016-10-15T09:35:21.751Z</time>
      </trkpt>
      <trkpt lat="43.43355" lon="1.54498">
        <ele>273.2</ele>
        <time>2016-10-15T09:35:28.766Z</time>
      </trkpt>
      <trkpt lat="43.43359" lon="1.54485">
        <ele>273.124</ele>
        <time>2016-10-15T09:35:36.662Z</time>
      </trkpt>
      <trkpt lat="43.43362" lon="1.54474">
        <ele>273.007</ele>
        <time>2016-10-15T09:35:43.560Z</time>
      </trkpt>
      <trkpt lat="43.43366" lon="1.54462">
        <ele>272.847</ele>
        <time>2016-10-15T09:35:50.628Z</time>
      </trkpt>
      <trkpt lat="43.43369" lon="1.5445">
        <ele>272.636</ele>
        <time>2016-10-15T09:35:57.558Z</time>
      </trkpt>
      <trkpt lat="43.43373" lon="1.54439">
        <ele>272.392</ele>
        <time>2016-10-15T09:36:04.521Z</time>
      </trkpt>
      <trkpt lat="43.43378" lon="1.54427">
        <ele>272.241</ele>
        <time>2016-10-15T09:36:12.332Z</time>
      </trkpt>
      <trkpt lat="43.43383" lon="1.54415">
        <ele>272.273</ele>
        <time>2016-10-15T09:36:20.312Z</time>
      </trkpt>
      <trkpt lat="43.43387" lon="1.54402">
        <ele>272.392</ele>
        <time>2016-10-15T09:36:28.268Z</time>
      </trkpt>
      <trkpt lat="43.43392" lon="1.5439">
        <ele>272.463</ele>
        <time>2016-10-15T09:36:36.309Z</time>
      </trkpt>
      <trkpt lat="43.43397" lon="1.54378">
        <ele>272.415</ele>
        <time>2016-10-15T09:36:44.048Z</time>
      </trkpt>
      <trkpt lat="43.43401" lon="1.54367">
        <ele>272.216</ele>
        <time>2016-10-15T09:36:51.148Z</time>
      </trkpt>
      <trkpt lat="43.43406" lon="1.54354">
        <ele>271.9</ele>
        <time>2016-10-15T09:36:59.070Z</time>
      </trkpt>
      <trkpt lat="43.4341" lon="1.54342">
        <ele>271.593</ele>
        <time>2016-10-15T09:37:06.895Z</time>
      </trkpt>
      <trkpt lat="43.43415" lon="1.5433">
        <ele>271.369</ele>
        <time>2016-10-15T09:37:14.111Z</time>
      </trkpt>
      <trkpt lat="43.4342" lon="1.54319">
        <ele>271.198</ele>
        <time>2016-10-15T09:37:22.341Z</time>
      </trkpt>
      <trkpt lat="43.43424" lon="1.54306">
        <ele>271.02</ele>
        <time>2016-10-15T09:37:30.800Z</time>
      </trkpt>
      <trkpt lat="43.4342" lon="1.54294">
        <ele>270.798</ele>
        <time>2016-10-15T09:37:39.384Z</time>
      </trkpt>
      <trkpt lat="43.43416" lon="1.54281">
        <ele>270.563</ele>
        <time>2016-10-15T09:37:47.821Z</time>
      </trkpt>
      <trkpt lat="43.43417" lon="1.54268">
        <ele>270.377</ele>
        <time>2016-10-15T09:37:56.652Z</time>
      </trkpt>
      <trkpt lat="43.43416" lon="1.54255">
        <ele>270.192</ele>
        <time>2016-10-15T09:38:05.829Z</time>
      </trkpt>
      <trkpt lat="43.43417" lon="1.54242">
        <ele>269.894</ele>
        <time>2016-10-15T09:38:13.920Z</time>
      </trkpt>
      <trkpt lat="43.43419" lon="1.5423">
        <ele>269.445</ele>
        <time>2016-10-15T09:38:21.642Z</time>
      </trkpt>
      <trkpt lat="43.43421" lon="1.54217">
        <ele>268.982</ele>
        <time>2016-10-15T09:38:29.705Z</time>
      </trkpt>
      <trkpt lat="43.43424" lon="1.54203">
        <ele>268.62</ele>
        <time>2016-10-15T09:38:37.785Z</time>
      </trkpt>
      <trkpt lat="43.43426" lon="1.54191">
        <ele>268.317</ele>
        <time>2016-10-15T09:38:45.431Z</time>
      </trkpt>
      <trkpt lat="43.43429" lon="1.54178">
        <ele>268.05</ele>
        <time>2016-10-15T09:38:53.691Z</time>
      </trkpt>
      <trkpt lat="43.43432" lon="1.54165">
        <ele>267.862</ele>
        <time>2016-10-15T09:39:01.562Z</time>
      </trkpt>
      <trkpt lat="43.43435" lon="1.54152">
        <ele>267.697</ele>
        <time>2016-10-15T09:39:09.456Z</time>
      </trkpt>
      <trkpt lat="43.43436" lon="1.54138">
        <ele>267.493</ele>
        <time>2016-10-15T09:39:17.476Z</time>
      </trkpt>
      <trkpt lat="43.43437" lon="1.54126">
        <ele>267.325</ele>
        <time>2016-10-15T09:39:24.437Z</time>
      </trkpt>
      <trkpt lat="43.43437" lon="1.54113">
        <ele>267.214</ele>
        <time>2016-10-15T09:39:31.619Z</time>
      </trkpt>
      <trkpt lat="43.43437" lon="1.541">
        <ele>267.069</ele>
        <time>2016-10-15T09:39:38.461Z</time>
      </trkpt>
      <trkpt lat="43.43437" lon="1.54087">
        <ele>266.868</ele>
        <time>2016-10-15T09:39:45.397Z</time>
      </trkpt>
      <trkpt lat="43.43438" lon="1.54074">
        <ele>266.695</ele>
        <time>2016-10-15T09:39:52.411Z</time>
      </trkpt>
      <trkpt lat="43.43438" lon="1.54061">
        <ele>266.606</ele>
        <time>2016-10-15T09:40:00.069Z</time>
      </trkpt>
      <trkpt lat="43.43436" lon="1.54048">
        <ele>266.572</ele>
        <time>2016-10-15T09:40:07.065Z</time>
      </trkpt>
      <trkpt lat="43.43434" lon="1.54036">
        <ele>266.553</ele>
        <time>2016-10-15T09:40:14.083Z</time>
      </trkpt>
      <trkpt lat="43.43432" lon="1.54023">
        <ele>266.598</ele>
        <time>2016-10-15T09:40:21.115Z</time>
      </trkpt>
      <trkpt lat="43.43429" lon="1.54011">
        <ele>266.739</ele>
        <time>2016-10-15T09:40:28.704Z</time>
      </trkpt>
      <trkpt lat="43.43431" lon="1.53998">
        <ele>267.038</ele>
        <time>2016-10-15T09:40:37.323Z</time>
      </trkpt>
      <trkpt lat="43.43438" lon="1.53988">
        <ele>267.736</ele>
        <time>2016-10-15T09:40:47.034Z</time>
      </trkpt>
      <trkpt lat="43.43442" lon="1.53976">
        <ele>268.765</ele>
        <time>2016-10-15T09:40:55.661Z</time>
      </trkpt>
      <trkpt lat="43.43447" lon="1.53965">
        <ele>269.536</ele>
        <time>2016-10-15T09:41:03.303Z</time>
      </trkpt>
      <trkpt lat="43.43451" lon="1.53953">
        <ele>269.663</ele>
        <time>2016-10-15T09:41:10.587Z</time>
      </trkpt>
      <trkpt lat="43.43455" lon="1.53942">
        <ele>269.32</ele>
        <time>2016-10-15T09:41:17.529Z</time>
      </trkpt>
      <trkpt lat="43.43459" lon="1.5393">
        <ele>268.896</ele>
        <time>2016-10-15T09:41:24.536Z</time>
      </trkpt>
      <trkpt lat="43.43463" lon="1.53918">
        <ele>268.648</ele>
        <time>2016-10-15T09:41:32.278Z</time>
      </trkpt>
      <trkpt lat="43.43465" lon="1.53904">
        <ele>268.583</ele>
        <time>2016-10-15T09:41:40.430Z</time>
      </trkpt>
      <trkpt lat="43.43467" lon="1.53892">
        <ele>268.631</ele>
        <time>2016-10-15T09:41:48.134Z</time>
      </trkpt>
      <trkpt lat="43.43468" lon="1.53878">
        <ele>268.771</ele>
        <time>2016-10-15T09:41:56.253Z</time>
      </trkpt>
      <trkpt lat="43.4347" lon="1.53865">
        <ele>268.967</ele>
        <time>2016-10-15T09:42:04.174Z</time>
      </trkpt>
      <trkpt lat="43.43472" lon="1.53853">
        <ele>269.133</ele>
        <time>2016-10-15T09:42:11.276Z</time>
      </trkpt>
      <trkpt lat="43.43475" lon="1.53839">
        <ele>269.284</ele>
        <time>2016-10-15T09:42:19.283Z</time>
      </trkpt>
      <trkpt lat="43.43478" lon="1.53827">
        <ele>269.504</ele>
        <time>2016-10-15T09:42:27.095Z</time>
      </trkpt>
      <trkpt lat="43.4348" lon="1.53814">
        <ele>269.779</ele>
        <time>2016-10-15T09:42:34.876Z</time>
      </trkpt>
      <trkpt lat="43.43483" lon="1.53801">
        <ele>270.07</ele>
        <time>2016-10-15T09:42:42.907Z</time>
      </trkpt>
      <trkpt lat="43.43485" lon="1.53789">
        <ele>270.369</ele>
        <time>2016-10-15T09:42:50.371Z</time>
      </trkpt>
      <trkpt lat="43.43487" lon="1.53775">
        <ele>270.622</ele>
        <time>2016-10-15T09:42:57.976Z</time>
      </trkpt>
      <trkpt lat="43.43489" lon="1.53763">
        <ele>270.792</ele>
        <time>2016-10-15T09:43:05.186Z</time>
      </trkpt>
      <trkpt lat="43.4349" lon="1.53751">
        <ele>270.955</ele>
        <time>2016-10-15T09:43:12.611Z</time>
      </trkpt>
      <trkpt lat="43.43493" lon="1.53738">
        <ele>271.194</ele>
        <time>2016-10-15T09:43:20.805Z</time>
      </trkpt>
      <trkpt lat="43.43497" lon="1.53725">
        <ele>271.508</ele>
        <time>2016-10-15T09:43:28.988Z</time>
      </trkpt>
      <trkpt lat="43.435" lon="1.53713">
        <ele>271.851</ele>
        <time>2016-10-15T09:43:36.685Z</time>
      </trkpt>
      <trkpt lat="43.43505" lon="1.537">
        <ele>272.154</ele>
        <time>2016-10-15T09:43:44.821Z</time>
      </trkpt>
      <trkpt lat="43.43507" lon="1.53688">
        <ele>272.343</ele>
        <time>2016-10-15T09:43:52.165Z</time>
      </trkpt>
      <trkpt lat="43.4351" lon="1.53674">
        <ele>272.365</ele>
        <time>2016-10-15T09:43:59.897Z</time>
      </trkpt>
      <trkpt lat="43.43514" lon="1.53662">
        <ele>272.25</ele>
        <time>2016-10-15T09:44:07.595Z</time>
      </trkpt>
      <trkpt lat="43.43517" lon="1.53649">
        <ele>272.103</ele>
        <time>2016-10-15T09:44:16.099Z</time>
      </trkpt>
      <trkpt lat="43.4352" lon="1.53637">
        <ele>272.003</ele>
        <time>2016-10-15T09:44:24.585Z</time>
      </trkpt>
      <trkpt lat="43.43523" lon="1.53624">
        <ele>271.958</ele>
        <time>2016-10-15T09:44:32.409Z</time>
      </trkpt>
      <trkpt lat="43.43525" lon="1.53611">
        <ele>271.993</ele>
        <time>2016-10-15T09:44:40.356Z</time>
      </trkpt>
      <trkpt lat="43.43526" lon="1.53599">
        <ele>272.119</ele>
        <time>2016-10-15T09:44:48.212Z</time>
      </trkpt>
      <trkpt lat="43.43526" lon="1.53586">
        <ele>272.269</ele>
        <time>2016-10-15T09:44:55.962Z</time>
      </trkpt>
      <trkpt lat="43.43528" lon="1.53573">
        <ele>272.343</ele>
        <time>2016-10-15T09:45:04.312Z</time>
      </trkpt>
      <trkpt lat="43.43531" lon="1.53561">
        <ele>272.316</ele>
        <time>2016-10-15T09:45:11.591Z</time>
      </trkpt>
      <trkpt lat="43.43533" lon="1.53548">
        <ele>272.232</ele>
        <time>2016-10-15T09:45:19.175Z</time>
      </trkpt>
      <trkpt lat="43.43536" lon="1.53535">
        <ele>272.161</ele>
        <time>2016-10-15T09:45:26.690Z</time>
      </trkpt>
      <trkpt lat="43.4354" lon="1.53524">
        <ele>272.129</ele>
        <time>2016-10-15T09:45:33.466Z</time>
      </trkpt>
      <trkpt lat="43.43542" lon="1.53511">
        <ele>272.063</ele>
        <time>2016-10-15T09:45:41.153Z</time>
      </trkpt>
      <trkpt lat="43.43541" lon="1.53498">
        <ele>271.902</ele>
        <time>2016-10-15T09:45:48.902Z</time>
      </trkpt>
      <trkpt lat="43.43543" lon="1.53484">
        <ele>271.737</ele>
        <time>2016-10-15T09:45:57.661Z</time>
      </trkpt>
      <trkpt lat="43.43544" lon="1.5347">
        <ele>271.646</ele>
        <time>2016-10-15T09:46:05.699Z</time>
      </trkpt>
      <trkpt lat="43.43544" lon="1.53457">
        <ele>271.597</ele>
        <time>2016-10-15T09:46:13.324Z</time>
      </trkpt>
      <trkpt lat="43.43548" lon="1.53446">
        <ele>271.502</ele>
        <time>2016-10-15T09:46:20.775Z</time>
      </trkpt>
      <trkpt lat="43.43553" lon="1.53435">
        <ele>271.277</ele>
        <time>2016-10-15T09:46:28.385Z</time>
      </trkpt>
      <trkpt lat="43.43558" lon="1.53425">
        <ele>270.925</ele>
        <time>2016-10-15T09:46:35.858Z</time>
      </trkpt>
      <trkpt lat="43.43562" lon="1.53413">
        <ele>270.569</ele>
        <time>2016-10-15T09:46:42.889Z</time>
      </trkpt>
      <trkpt lat="43.43565" lon="1.53402">
        <ele>270.296</ele>
        <time>2016-10-15T09:46:49.976Z</time>
      </trkpt>
      <trkpt lat="43.43571" lon="1.5339">
        <ele>270.119</ele>
        <time>2016-10-15T09:46:57.793Z</time>
      </trkpt>
      <trkpt lat="43.43577" lon="1.5338">
        <ele>270.037</ele>
        <time>2016-10-15T09:47:04.795Z</time>
      </trkpt>
      <trkpt lat="43.4358" lon="1.53368">
        <ele>270.04</ele>
        <time>2016-10-15T09:47:12.598Z</time>
      </trkpt>
      <trkpt lat="43.43574" lon="1.53357">
        <ele>270.062</ele>
        <time>2016-10-15T09:47:20.282Z</time>
      </trkpt>
      <trkpt lat="43.43564" lon="1.53352">
        <ele>270.054</ele>
        <time>2016-10-15T09:47:27.711Z</time>
      </trkpt>
      <trkpt lat="43.43556" lon="1.53344">
        <ele>270.03</ele>
        <time>2016-10-15T09:47:34.543Z</time>
      </trkpt>
      <trkpt lat="43.43549" lon="1.53335">
        <ele>270.002</ele>
        <time>2016-10-15T09:47:41.034Z</time>
      </trkpt>
      <trkpt lat="43.43542" lon="1.53328">
        <ele>269.883</ele>
        <time>2016-10-15T09:47:47.887Z</time>
      </trkpt>
      <trkpt lat="43.43533" lon="1.5332">
        <ele>269.577</ele>
        <time>2016-10-15T09:47:55.685Z</time>
      </trkpt>
      <trkpt lat="43.43525" lon="1.53312">
        <ele>269.11</ele>
        <time>2016-10-15T09:48:03.674Z</time>
      </trkpt>
      <trkpt lat="43.43518" lon="1.53305">
        <ele>268.565</ele>
        <time>2016-10-15T09:48:10.676Z</time>
      </trkpt>
      <trkpt lat="43.43509" lon="1.53297">
        <ele>268.004</ele>
        <time>2016-10-15T09:48:18.591Z</time>
      </trkpt>
      <trkpt lat="43.43502" lon="1.53289">
        <ele>267.471</ele>
        <time>2016-10-15T09:48:26.149Z</time>
      </trkpt>
      <trkpt lat="43.43494" lon="1.53283">
        <ele>267.042</ele>
        <time>2016-10-15T09:48:33.857Z</time>
      </trkpt>
      <trkpt lat="43.43486" lon="1.53275">
        <ele>266.717</ele>
        <time>2016-10-15T09:48:42.030Z</time>
      </trkpt>
      <trkpt lat="43.43479" lon="1.53267">
        <ele>266.393</ele>
        <time>2016-10-15T09:48:50.036Z</time>
      </trkpt>
      <trkpt lat="43.4347" lon="1.53259">
        <ele>265.99</ele>
        <time>2016-10-15T09:48:58.105Z</time>
      </trkpt>
      <trkpt lat="43.43462" lon="1.53252">
        <ele>265.56</ele>
        <time>2016-10-15T09:49:06.140Z</time>
      </trkpt>
      <trkpt lat="43.43455" lon="1.53244">
        <ele>265.175</ele>
        <time>2016-10-15T09:49:13.649Z</time>
      </trkpt>
      <trkpt lat="43.43447" lon="1.53237">
        <ele>264.793</ele>
        <time>2016-10-15T09:49:21.680Z</time>
      </trkpt>
      <trkpt lat="43.43439" lon="1.53229">
        <ele>264.373</ele>
        <time>2016-10-15T09:49:29.826Z</time>
      </trkpt>
      <trkpt lat="43.43431" lon="1.53221">
        <ele>264.002</ele>
        <time>2016-10-15T09:49:37.923Z</time>
      </trkpt>
      <trkpt lat="43.43423" lon="1.53214">
        <ele>263.643</ele>
        <time>2016-10-15T09:49:45.654Z</time>
      </trkpt>
      <trkpt lat="43.43414" lon="1.53208">
        <ele>263.224</ele>
        <time>2016-10-15T09:49:53.708Z</time>
      </trkpt>
      <trkpt lat="43.43406" lon="1.53201">
        <ele>262.822</ele>
        <time>2016-10-15T09:50:01.009Z</time>
      </trkpt>
      <trkpt lat="43.43398" lon="1.53194">
        <ele>262.501</ele>
        <time>2016-10-15T09:50:08.846Z</time>
      </trkpt>
      <trkpt lat="43.43389" lon="1.53187">
        <ele>262.194</ele>
        <time>2016-10-15T09:50:16.817Z</time>
      </trkpt>
      <trkpt lat="43.4338" lon="1.5318">
        <ele>261.86</ele>
        <time>2016-10-15T09:50:24.797Z</time>
      </trkpt>
      <trkpt lat="43.43371" lon="1.53173">
        <ele>261.563</ele>
        <time>2016-10-15T09:50:32.779Z</time>
      </trkpt>
      <trkpt lat="43.43363" lon="1.53166">
        <ele>261.396</ele>
        <time>2016-10-15T09:50:40.653Z</time>
      </trkpt>
      <trkpt lat="43.43354" lon="1.53159">
        <ele>261.37</ele>
        <time>2016-10-15T09:50:48.442Z</time>
      </trkpt>
      <trkpt lat="43.43345" lon="1.53153">
        <ele>261.46</ele>
        <time>2016-10-15T09:50:56.383Z</time>
      </trkpt>
      <trkpt lat="43.43336" lon="1.53147">
        <ele>261.607</ele>
        <time>2016-10-15T09:51:04.386Z</time>
      </trkpt>
      <trkpt lat="43.43327" lon="1.53141">
        <ele>261.725</ele>
        <time>2016-10-15T09:51:12.439Z</time>
      </trkpt>
      <trkpt lat="43.43319" lon="1.53134">
        <ele>261.782</ele>
        <time>2016-10-15T09:51:19.837Z</time>
      </trkpt>
      <trkpt lat="43.43312" lon="1.53126">
        <ele>261.828</ele>
        <time>2016-10-15T09:51:28.176Z</time>
      </trkpt>
      <trkpt lat="43.4331" lon="1.53113">
        <ele>261.913</ele>
        <time>2016-10-15T09:51:36.887Z</time>
      </trkpt>
      <trkpt lat="43.43308" lon="1.531">
        <ele>262.035</ele>
        <time>2016-10-15T09:51:45.576Z</time>
      </trkpt>
      <trkpt lat="43.43306" lon="1.53087">
        <ele>262.161</ele>
        <time>2016-10-15T09:51:54.864Z</time>
      </trkpt>
      <trkpt lat="43.43303" lon="1.53075">
        <ele>262.215</ele>
        <time>2016-10-15T09:52:03.836Z</time>
      </trkpt>
      <trkpt lat="43.433" lon="1.53062">
        <ele>262.138</ele>
        <time>2016-10-15T09:52:13.196Z</time>
      </trkpt>
      <trkpt lat="43.43298" lon="1.53049">
        <ele>261.919</ele>
        <time>2016-10-15T09:52:22.411Z</time>
      </trkpt>
      <trkpt lat="43.43294" lon="1.53037">
        <ele>261.565</ele>
        <time>2016-10-15T09:52:30.769Z</time>
      </trkpt>
      <trkpt lat="43.43291" lon="1.53025">
        <ele>261.186</ele>
        <time>2016-10-15T09:52:38.395Z</time>
      </trkpt>
      <trkpt lat="43.43288" lon="1.53012">
        <ele>260.964</ele>
        <time>2016-10-15T09:52:45.901Z</time>
      </trkpt>
      <trkpt lat="43.43284" lon="1.52999">
        <ele>261</ele>
        <time>2016-10-15T09:52:53.941Z</time>
      </trkpt>
      <trkpt lat="43.43281" lon="1.52987">
        <ele>261.217</ele>
        <time>2016-10-15T09:53:01.812Z</time>
      </trkpt>
      <trkpt lat="43.43276" lon="1.52975">
        <ele>261.495</ele>
        <time>2016-10-15T09:53:10.911Z</time>
      </trkpt>
      <trkpt lat="43.43273" lon="1.52962">
        <ele>261.795</ele>
        <time>2016-10-15T09:53:19.596Z</time>
      </trkpt>
      <trkpt lat="43.43272" lon="1.52948">
        <ele>262.138</ele>
        <time>2016-10-15T09:53:27.526Z</time>
      </trkpt>
      <trkpt lat="43.4327" lon="1.52934">
        <ele>262.546</ele>
        <time>2016-10-15T09:53:34.946Z</time>
      </trkpt>
      <trkpt lat="43.43267" lon="1.5292">
        <ele>262.952</ele>
        <time>2016-10-15T09:53:43.266Z</time>
      </trkpt>
      <trkpt lat="43.43266" lon="1.52908">
        <ele>263.268</ele>
        <time>2016-10-15T09:53:50.695Z</time>
      </trkpt>
      <trkpt lat="43.43265" lon="1.52895">
        <ele>263.495</ele>
        <time>2016-10-15T09:53:57.811Z</time>
      </trkpt>
      <trkpt lat="43.43266" lon="1.52882">
        <ele>263.602</ele>
        <time>2016-10-15T09:54:05.000Z</time>
      </trkpt>
      <trkpt lat="43.43266" lon="1.52882">
        <ele>263.552</ele>
        <time>2016-10-15T09:54:08.000Z</time>
      </trkpt>
      <trkpt lat="43.43266" lon="1.52882">
        <ele>263.417</ele>
        <time>2016-10-15T09:54:12.858Z</time>
      </trkpt>
      <trkpt lat="43.43267" lon="1.52868">
        <ele>263.24</ele>
        <time>2016-10-15T09:54:27.409Z</time>
      </trkpt>
      <trkpt lat="43.43271" lon="1.52856">
        <ele>263.228</ele>
        <time>2016-10-15T09:54:34.963Z</time>
      </trkpt>
      <trkpt lat="43.43276" lon="1.52845">
        <ele>263.261</ele>
        <time>2016-10-15T09:54:42.569Z</time>
      </trkpt>
      <trkpt lat="43.43282" lon="1.52836">
        <ele>263.336</ele>
        <time>2016-10-15T09:54:50.058Z</time>
      </trkpt>
      <trkpt lat="43.43287" lon="1.52824">
        <ele>263.455</ele>
        <time>2016-10-15T09:54:57.769Z</time>
      </trkpt>
      <trkpt lat="43.43294" lon="1.52814">
        <ele>263.62</ele>
        <time>2016-10-15T09:55:05.111Z</time>
      </trkpt>
      <trkpt lat="43.43301" lon="1.52805">
        <ele>263.826</ele>
        <time>2016-10-15T09:55:12.143Z</time>
      </trkpt>
      <trkpt lat="43.43309" lon="1.52798">
        <ele>264.053</ele>
        <time>2016-10-15T09:55:19.550Z</time>
      </trkpt>
      <trkpt lat="43.43318" lon="1.52791">
        <ele>264.276</ele>
        <time>2016-10-15T09:55:26.352Z</time>
      </trkpt>
      <trkpt lat="43.43325" lon="1.52782">
        <ele>264.523</ele>
        <time>2016-10-15T09:55:33.000Z</time>
      </trkpt>
      <trkpt lat="43.43325" lon="1.52782">
        <ele>264.81</ele>
        <time>2016-10-15T09:55:35.000Z</time>
      </trkpt>
      <trkpt lat="43.43325" lon="1.52782">
        <ele>264.95</ele>
        <time>2016-10-15T09:55:42.229Z</time>
      </trkpt>
      <trkpt lat="43.43331" lon="1.52771">
        <ele>264.623</ele>
        <time>2016-10-15T09:55:55.849Z</time>
      </trkpt>
      <trkpt lat="43.4334" lon="1.52764">
        <ele>264.617</ele>
        <time>2016-10-15T09:56:03.041Z</time>
      </trkpt>
      <trkpt lat="43.43347" lon="1.52755">
        <ele>264.914</ele>
        <time>2016-10-15T09:56:09.594Z</time>
      </trkpt>
      <trkpt lat="43.43354" lon="1.52744">
        <ele>265.318</ele>
        <time>2016-10-15T09:56:15.834Z</time>
      </trkpt>
      <trkpt lat="43.43359" lon="1.52734">
        <ele>265.645</ele>
        <time>2016-10-15T09:56:22.136Z</time>
      </trkpt>
      <trkpt lat="43.43365" lon="1.52722">
        <ele>265.903</ele>
        <time>2016-10-15T09:56:29.142Z</time>
      </trkpt>
      <trkpt lat="43.43367" lon="1.52709">
        <ele>266.078</ele>
        <time>2016-10-15T09:56:35.827Z</time>
      </trkpt>
      <trkpt lat="43.4337" lon="1.52696">
        <ele>266.146</ele>
        <time>2016-10-15T09:56:42.801Z</time>
      </trkpt>
      <trkpt lat="43.43373" lon="1.52683">
        <ele>266.134</ele>
        <time>2016-10-15T09:56:49.979Z</time>
      </trkpt>
      <trkpt lat="43.43375" lon="1.5267">
        <ele>266.073</ele>
        <time>2016-10-15T09:56:57.000Z</time>
      </trkpt>
      <trkpt lat="43.43376" lon="1.52658">
        <ele>265.983</ele>
        <time>2016-10-15T09:57:06.000Z</time>
      </trkpt>
    </trkseg>
  </trk>
</gpx>